<?xml version="1.0" encoding="UTF-8"?>
<gpx version="1.1" creator="https://www.youtrack.es" xsi:schemaLocation="http://www.topografix.com/GPX/1/1 http://www.topografix.com/GPX/1/1/gpx.xsd http://www.garmin.com/xmlschemas/GpxExtensions/v3 http://www.garmin.com/xmlschemas/GpxExtensionsv3.xsd http://www.garmin.com/xmlschemas/TrackPointExtension/v1 http://www.garmin.com/xmlschemas/TrackPointExtensionv1.xsd" xmlns:gpxtpx="http://www.garmin.com/xmlschemas/TrackPointExtension/v1" xmlns:gpxx="http://www.garmin.com/xmlschemas/GpxExtensions/v3" xmlns:xsi="http://www.w3.org/2001/XMLSchema-instance">
  <metadata>
    <link href="https://www.youtrack.es">
      <text>YouTrack.es</text>
    </link>
    <time>2026-05-07T22:45:56Z</time>
  </metadata>
  <trk>
    <src>https://www.youtrack.es</src>
    <link href="https://www.youtrack.es/ruta/1792-ciclismo-al-anochecer">
      <text>YouTrack.es</text>
    </link>
    <trkseg>
      <trkpt lat="41.9944370" lon="-4.5164510">
        <ele>738.8</ele>
        <time>2018-08-23T17:05:21Z</time>
      </trkpt>
      <trkpt lat="41.9944380" lon="-4.5164040">
        <ele>738.8</ele>
        <time>2018-08-23T17:05:22Z</time>
      </trkpt>
      <trkpt lat="41.9944260" lon="-4.5163630">
        <ele>738.8</ele>
        <time>2018-08-23T17:05:23Z</time>
      </trkpt>
      <trkpt lat="41.9942530" lon="-4.5160520">
        <ele>738.8</ele>
        <time>2018-08-23T17:05:30Z</time>
      </trkpt>
      <trkpt lat="41.9942290" lon="-4.5160060">
        <ele>738.8</ele>
        <time>2018-08-23T17:05:31Z</time>
      </trkpt>
      <trkpt lat="41.9942060" lon="-4.5159610">
        <ele>738.8</ele>
        <time>2018-08-23T17:05:32Z</time>
      </trkpt>
      <trkpt lat="41.9941600" lon="-4.5158720">
        <ele>739.0</ele>
        <time>2018-08-23T17:05:34Z</time>
      </trkpt>
      <trkpt lat="41.9941150" lon="-4.5157820">
        <ele>739.2</ele>
        <time>2018-08-23T17:05:36Z</time>
      </trkpt>
      <trkpt lat="41.9940930" lon="-4.5157370">
        <ele>739.2</ele>
        <time>2018-08-23T17:05:37Z</time>
      </trkpt>
      <trkpt lat="41.9939970" lon="-4.5155190">
        <ele>740.0</ele>
        <time>2018-08-23T17:05:42Z</time>
      </trkpt>
      <trkpt lat="41.9939790" lon="-4.5154740">
        <ele>740.2</ele>
        <time>2018-08-23T17:05:43Z</time>
      </trkpt>
      <trkpt lat="41.9939620" lon="-4.5154300">
        <ele>740.6</ele>
        <time>2018-08-23T17:05:44Z</time>
      </trkpt>
      <trkpt lat="41.9939440" lon="-4.5153840">
        <ele>741.0</ele>
        <time>2018-08-23T17:05:45Z</time>
      </trkpt>
      <trkpt lat="41.9939270" lon="-4.5153400">
        <ele>741.4</ele>
        <time>2018-08-23T17:05:46Z</time>
      </trkpt>
      <trkpt lat="41.9938970" lon="-4.5152530">
        <ele>741.8</ele>
        <time>2018-08-23T17:05:48Z</time>
      </trkpt>
      <trkpt lat="41.9938680" lon="-4.5151660">
        <ele>742.4</ele>
        <time>2018-08-23T17:05:50Z</time>
      </trkpt>
      <trkpt lat="41.9938530" lon="-4.5151230">
        <ele>742.8</ele>
        <time>2018-08-23T17:05:51Z</time>
      </trkpt>
      <trkpt lat="41.9938130" lon="-4.5149850">
        <ele>743.4</ele>
        <time>2018-08-23T17:05:54Z</time>
      </trkpt>
      <trkpt lat="41.9937720" lon="-4.5148490">
        <ele>744.0</ele>
        <time>2018-08-23T17:05:57Z</time>
      </trkpt>
      <trkpt lat="41.9937490" lon="-4.5147560">
        <ele>744.6</ele>
        <time>2018-08-23T17:05:59Z</time>
      </trkpt>
      <trkpt lat="41.9936900" lon="-4.5145350">
        <ele>745.8</ele>
        <time>2018-08-23T17:06:04Z</time>
      </trkpt>
      <trkpt lat="41.9935330" lon="-4.5139930">
        <ele>746.8</ele>
        <time>2018-08-23T17:06:16Z</time>
      </trkpt>
      <trkpt lat="41.9933930" lon="-4.5136710">
        <ele>748.0</ele>
        <time>2018-08-23T17:06:22Z</time>
      </trkpt>
      <trkpt lat="41.9930710" lon="-4.5131750">
        <ele>748.2</ele>
        <time>2018-08-23T17:06:30Z</time>
      </trkpt>
      <trkpt lat="41.9929130" lon="-4.5129860">
        <ele>748.0</ele>
        <time>2018-08-23T17:06:33Z</time>
      </trkpt>
      <trkpt lat="41.9928560" lon="-4.5129190">
        <ele>747.8</ele>
        <time>2018-08-23T17:06:34Z</time>
      </trkpt>
      <trkpt lat="41.9927970" lon="-4.5128510">
        <ele>747.8</ele>
        <time>2018-08-23T17:06:35Z</time>
      </trkpt>
      <trkpt lat="41.9926760" lon="-4.5127120">
        <ele>747.2</ele>
        <time>2018-08-23T17:06:37Z</time>
      </trkpt>
      <trkpt lat="41.9926140" lon="-4.5126400">
        <ele>746.8</ele>
        <time>2018-08-23T17:06:38Z</time>
      </trkpt>
      <trkpt lat="41.9925510" lon="-4.5125670">
        <ele>746.4</ele>
        <time>2018-08-23T17:06:39Z</time>
      </trkpt>
      <trkpt lat="41.9924200" lon="-4.5124150">
        <ele>745.6</ele>
        <time>2018-08-23T17:06:41Z</time>
      </trkpt>
      <trkpt lat="41.9923520" lon="-4.5123390">
        <ele>745.0</ele>
        <time>2018-08-23T17:06:42Z</time>
      </trkpt>
      <trkpt lat="41.9922840" lon="-4.5122640">
        <ele>744.2</ele>
        <time>2018-08-23T17:06:43Z</time>
      </trkpt>
      <trkpt lat="41.9921450" lon="-4.5121110">
        <ele>743.2</ele>
        <time>2018-08-23T17:06:45Z</time>
      </trkpt>
      <trkpt lat="41.9920750" lon="-4.5120340">
        <ele>742.0</ele>
        <time>2018-08-23T17:06:46Z</time>
      </trkpt>
      <trkpt lat="41.9919380" lon="-4.5118750">
        <ele>741.4</ele>
        <time>2018-08-23T17:06:48Z</time>
      </trkpt>
      <trkpt lat="41.9918680" lon="-4.5117940">
        <ele>741.0</ele>
        <time>2018-08-23T17:06:49Z</time>
      </trkpt>
      <trkpt lat="41.9917390" lon="-4.5116430">
        <ele>740.2</ele>
        <time>2018-08-23T17:06:51Z</time>
      </trkpt>
      <trkpt lat="41.9916840" lon="-4.5115780">
        <ele>739.8</ele>
        <time>2018-08-23T17:06:52Z</time>
      </trkpt>
      <trkpt lat="41.9915920" lon="-4.5114790">
        <ele>739.4</ele>
        <time>2018-08-23T17:06:54Z</time>
      </trkpt>
      <trkpt lat="41.9913880" lon="-4.5113490">
        <ele>739.2</ele>
        <time>2018-08-23T17:07:01Z</time>
      </trkpt>
      <trkpt lat="41.9913630" lon="-4.5113410">
        <ele>739.4</ele>
        <time>2018-08-23T17:07:02Z</time>
      </trkpt>
      <trkpt lat="41.9911900" lon="-4.5113110">
        <ele>740.8</ele>
        <time>2018-08-23T17:07:09Z</time>
      </trkpt>
      <trkpt lat="41.9911440" lon="-4.5112870">
        <ele>740.8</ele>
        <time>2018-08-23T17:07:10Z</time>
      </trkpt>
      <trkpt lat="41.9910610" lon="-4.5112050">
        <ele>741.0</ele>
        <time>2018-08-23T17:07:12Z</time>
      </trkpt>
      <trkpt lat="41.9910140" lon="-4.5110960">
        <ele>741.4</ele>
        <time>2018-08-23T17:07:14Z</time>
      </trkpt>
      <trkpt lat="41.9909970" lon="-4.5110360">
        <ele>741.4</ele>
        <time>2018-08-23T17:07:15Z</time>
      </trkpt>
      <trkpt lat="41.9909800" lon="-4.5109750">
        <ele>741.6</ele>
        <time>2018-08-23T17:07:16Z</time>
      </trkpt>
      <trkpt lat="41.9908160" lon="-4.5106440">
        <ele>741.6</ele>
        <time>2018-08-23T17:07:22Z</time>
      </trkpt>
      <trkpt lat="41.9907390" lon="-4.5105650">
        <ele>741.6</ele>
        <time>2018-08-23T17:07:24Z</time>
      </trkpt>
      <trkpt lat="41.9906970" lon="-4.5105260">
        <ele>741.6</ele>
        <time>2018-08-23T17:07:25Z</time>
      </trkpt>
      <trkpt lat="41.9906560" lon="-4.5104900">
        <ele>741.6</ele>
        <time>2018-08-23T17:07:26Z</time>
      </trkpt>
      <trkpt lat="41.9905780" lon="-4.5104130">
        <ele>741.6</ele>
        <time>2018-08-23T17:07:28Z</time>
      </trkpt>
      <trkpt lat="41.9904250" lon="-4.5102480">
        <ele>741.6</ele>
        <time>2018-08-23T17:07:32Z</time>
      </trkpt>
      <trkpt lat="41.9902690" lon="-4.5100740">
        <ele>741.4</ele>
        <time>2018-08-23T17:07:36Z</time>
      </trkpt>
      <trkpt lat="41.9898550" lon="-4.5096000">
        <ele>741.4</ele>
        <time>2018-08-23T17:07:46Z</time>
      </trkpt>
      <trkpt lat="41.9894760" lon="-4.5091820">
        <ele>741.8</ele>
        <time>2018-08-23T17:07:55Z</time>
      </trkpt>
      <trkpt lat="41.9892610" lon="-4.5089550">
        <ele>742.2</ele>
        <time>2018-08-23T17:08:00Z</time>
      </trkpt>
      <trkpt lat="41.9892190" lon="-4.5089140">
        <ele>742.6</ele>
        <time>2018-08-23T17:08:01Z</time>
      </trkpt>
      <trkpt lat="41.9891760" lon="-4.5088720">
        <ele>742.6</ele>
        <time>2018-08-23T17:08:02Z</time>
      </trkpt>
      <trkpt lat="41.9890910" lon="-4.5087820">
        <ele>742.8</ele>
        <time>2018-08-23T17:08:04Z</time>
      </trkpt>
      <trkpt lat="41.9890470" lon="-4.5087380">
        <ele>742.8</ele>
        <time>2018-08-23T17:08:05Z</time>
      </trkpt>
      <trkpt lat="41.9889580" lon="-4.5086490">
        <ele>742.8</ele>
        <time>2018-08-23T17:08:07Z</time>
      </trkpt>
      <trkpt lat="41.9889140" lon="-4.5086050">
        <ele>742.8</ele>
        <time>2018-08-23T17:08:08Z</time>
      </trkpt>
      <trkpt lat="41.9885450" lon="-4.5082380">
        <ele>743.0</ele>
        <time>2018-08-23T17:08:16Z</time>
      </trkpt>
      <trkpt lat="41.9883240" lon="-4.5080090">
        <ele>743.6</ele>
        <time>2018-08-23T17:08:21Z</time>
      </trkpt>
      <trkpt lat="41.9882420" lon="-4.5079240">
        <ele>743.8</ele>
        <time>2018-08-23T17:08:23Z</time>
      </trkpt>
      <trkpt lat="41.9882010" lon="-4.5078810">
        <ele>744.0</ele>
        <time>2018-08-23T17:08:24Z</time>
      </trkpt>
      <trkpt lat="41.9881600" lon="-4.5078380">
        <ele>744.0</ele>
        <time>2018-08-23T17:08:25Z</time>
      </trkpt>
      <trkpt lat="41.9881200" lon="-4.5077940">
        <ele>744.0</ele>
        <time>2018-08-23T17:08:26Z</time>
      </trkpt>
      <trkpt lat="41.9880800" lon="-4.5077480">
        <ele>744.0</ele>
        <time>2018-08-23T17:08:27Z</time>
      </trkpt>
      <trkpt lat="41.9880400" lon="-4.5077030">
        <ele>744.0</ele>
        <time>2018-08-23T17:08:28Z</time>
      </trkpt>
      <trkpt lat="41.9879600" lon="-4.5076130">
        <ele>744.2</ele>
        <time>2018-08-23T17:08:30Z</time>
      </trkpt>
      <trkpt lat="41.9877250" lon="-4.5073380">
        <ele>744.4</ele>
        <time>2018-08-23T17:08:36Z</time>
      </trkpt>
      <trkpt lat="41.9874390" lon="-4.5070050">
        <ele>744.8</ele>
        <time>2018-08-23T17:08:43Z</time>
      </trkpt>
      <trkpt lat="41.9873550" lon="-4.5069090">
        <ele>745.0</ele>
        <time>2018-08-23T17:08:45Z</time>
      </trkpt>
      <trkpt lat="41.9869210" lon="-4.5064250">
        <ele>745.8</ele>
        <time>2018-08-23T17:08:56Z</time>
      </trkpt>
      <trkpt lat="41.9866750" lon="-4.5061670">
        <ele>745.8</ele>
        <time>2018-08-23T17:09:02Z</time>
      </trkpt>
      <trkpt lat="41.9865480" lon="-4.5060510">
        <ele>746.0</ele>
        <time>2018-08-23T17:09:05Z</time>
      </trkpt>
      <trkpt lat="41.9863320" lon="-4.5058390">
        <ele>746.4</ele>
        <time>2018-08-23T17:09:10Z</time>
      </trkpt>
      <trkpt lat="41.9861980" lon="-4.5057030">
        <ele>746.8</ele>
        <time>2018-08-23T17:09:13Z</time>
      </trkpt>
      <trkpt lat="41.9861050" lon="-4.5056090">
        <ele>747.0</ele>
        <time>2018-08-23T17:09:15Z</time>
      </trkpt>
      <trkpt lat="41.9858260" lon="-4.5053390">
        <ele>747.4</ele>
        <time>2018-08-23T17:09:21Z</time>
      </trkpt>
      <trkpt lat="41.9855550" lon="-4.5050890">
        <ele>747.8</ele>
        <time>2018-08-23T17:09:27Z</time>
      </trkpt>
      <trkpt lat="41.9854220" lon="-4.5049710">
        <ele>748.0</ele>
        <time>2018-08-23T17:09:30Z</time>
      </trkpt>
      <trkpt lat="41.9853360" lon="-4.5048980">
        <ele>748.0</ele>
        <time>2018-08-23T17:09:32Z</time>
      </trkpt>
      <trkpt lat="41.9850760" lon="-4.5046630">
        <ele>749.0</ele>
        <time>2018-08-23T17:09:38Z</time>
      </trkpt>
      <trkpt lat="41.9850310" lon="-4.5046210">
        <ele>749.2</ele>
        <time>2018-08-23T17:09:39Z</time>
      </trkpt>
      <trkpt lat="41.9848030" lon="-4.5044130">
        <ele>749.6</ele>
        <time>2018-08-23T17:09:44Z</time>
      </trkpt>
      <trkpt lat="41.9846160" lon="-4.5042380">
        <ele>749.8</ele>
        <time>2018-08-23T17:09:48Z</time>
      </trkpt>
      <trkpt lat="41.9845700" lon="-4.5041950">
        <ele>749.8</ele>
        <time>2018-08-23T17:09:49Z</time>
      </trkpt>
      <trkpt lat="41.9845240" lon="-4.5041520">
        <ele>749.8</ele>
        <time>2018-08-23T17:09:50Z</time>
      </trkpt>
      <trkpt lat="41.9843870" lon="-4.5040240">
        <ele>749.8</ele>
        <time>2018-08-23T17:09:53Z</time>
      </trkpt>
      <trkpt lat="41.9842520" lon="-4.5038940">
        <ele>749.8</ele>
        <time>2018-08-23T17:09:56Z</time>
      </trkpt>
      <trkpt lat="41.9842070" lon="-4.5038520">
        <ele>749.8</ele>
        <time>2018-08-23T17:09:57Z</time>
      </trkpt>
      <trkpt lat="41.9841630" lon="-4.5038100">
        <ele>749.6</ele>
        <time>2018-08-23T17:09:58Z</time>
      </trkpt>
      <trkpt lat="41.9840300" lon="-4.5036670">
        <ele>749.6</ele>
        <time>2018-08-23T17:10:01Z</time>
      </trkpt>
      <trkpt lat="41.9839850" lon="-4.5036160">
        <ele>749.4</ele>
        <time>2018-08-23T17:10:02Z</time>
      </trkpt>
      <trkpt lat="41.9839400" lon="-4.5035650">
        <ele>749.4</ele>
        <time>2018-08-23T17:10:03Z</time>
      </trkpt>
      <trkpt lat="41.9838940" lon="-4.5035140">
        <ele>749.4</ele>
        <time>2018-08-23T17:10:04Z</time>
      </trkpt>
      <trkpt lat="41.9838490" lon="-4.5034650">
        <ele>749.4</ele>
        <time>2018-08-23T17:10:05Z</time>
      </trkpt>
      <trkpt lat="41.9838020" lon="-4.5034140">
        <ele>749.2</ele>
        <time>2018-08-23T17:10:06Z</time>
      </trkpt>
      <trkpt lat="41.9836170" lon="-4.5031890">
        <ele>749.0</ele>
        <time>2018-08-23T17:10:10Z</time>
      </trkpt>
      <trkpt lat="41.9835700" lon="-4.5031360">
        <ele>749.0</ele>
        <time>2018-08-23T17:10:11Z</time>
      </trkpt>
      <trkpt lat="41.9835230" lon="-4.5030810">
        <ele>748.8</ele>
        <time>2018-08-23T17:10:12Z</time>
      </trkpt>
      <trkpt lat="41.9834770" lon="-4.5030250">
        <ele>748.8</ele>
        <time>2018-08-23T17:10:13Z</time>
      </trkpt>
      <trkpt lat="41.9833870" lon="-4.5029120">
        <ele>748.6</ele>
        <time>2018-08-23T17:10:15Z</time>
      </trkpt>
      <trkpt lat="41.9833420" lon="-4.5028540">
        <ele>748.6</ele>
        <time>2018-08-23T17:10:16Z</time>
      </trkpt>
      <trkpt lat="41.9832100" lon="-4.5026840">
        <ele>748.4</ele>
        <time>2018-08-23T17:10:19Z</time>
      </trkpt>
      <trkpt lat="41.9831670" lon="-4.5026280">
        <ele>748.2</ele>
        <time>2018-08-23T17:10:20Z</time>
      </trkpt>
      <trkpt lat="41.9830830" lon="-4.5025140">
        <ele>748.2</ele>
        <time>2018-08-23T17:10:22Z</time>
      </trkpt>
      <trkpt lat="41.9830410" lon="-4.5024560">
        <ele>748.0</ele>
        <time>2018-08-23T17:10:23Z</time>
      </trkpt>
      <trkpt lat="41.9830000" lon="-4.5023990">
        <ele>747.8</ele>
        <time>2018-08-23T17:10:24Z</time>
      </trkpt>
      <trkpt lat="41.9829600" lon="-4.5023430">
        <ele>747.8</ele>
        <time>2018-08-23T17:10:25Z</time>
      </trkpt>
      <trkpt lat="41.9829200" lon="-4.5022850">
        <ele>747.8</ele>
        <time>2018-08-23T17:10:26Z</time>
      </trkpt>
      <trkpt lat="41.9828780" lon="-4.5022260">
        <ele>747.8</ele>
        <time>2018-08-23T17:10:27Z</time>
      </trkpt>
      <trkpt lat="41.9828390" lon="-4.5021680">
        <ele>747.8</ele>
        <time>2018-08-23T17:10:28Z</time>
      </trkpt>
      <trkpt lat="41.9828020" lon="-4.5021130">
        <ele>747.8</ele>
        <time>2018-08-23T17:10:29Z</time>
      </trkpt>
      <trkpt lat="41.9827590" lon="-4.5020610">
        <ele>747.6</ele>
        <time>2018-08-23T17:10:30Z</time>
      </trkpt>
      <trkpt lat="41.9827190" lon="-4.5020140">
        <ele>747.6</ele>
        <time>2018-08-23T17:10:31Z</time>
      </trkpt>
      <trkpt lat="41.9825590" lon="-4.5018390">
        <ele>747.4</ele>
        <time>2018-08-23T17:10:35Z</time>
      </trkpt>
      <trkpt lat="41.9824950" lon="-4.5017770">
        <ele>747.4</ele>
        <time>2018-08-23T17:10:37Z</time>
      </trkpt>
      <trkpt lat="41.9824600" lon="-4.5017350">
        <ele>747.4</ele>
        <time>2018-08-23T17:10:38Z</time>
      </trkpt>
      <trkpt lat="41.9824190" lon="-4.5016930">
        <ele>747.4</ele>
        <time>2018-08-23T17:10:39Z</time>
      </trkpt>
      <trkpt lat="41.9822890" lon="-4.5015130">
        <ele>747.4</ele>
        <time>2018-08-23T17:10:42Z</time>
      </trkpt>
      <trkpt lat="41.9819660" lon="-4.5008400">
        <ele>748.0</ele>
        <time>2018-08-23T17:10:51Z</time>
      </trkpt>
      <trkpt lat="41.9818150" lon="-4.5005530">
        <ele>748.2</ele>
        <time>2018-08-23T17:10:55Z</time>
      </trkpt>
      <trkpt lat="41.9816080" lon="-4.5001410">
        <ele>748.2</ele>
        <time>2018-08-23T17:11:01Z</time>
      </trkpt>
      <trkpt lat="41.9815020" lon="-4.4999470">
        <ele>748.2</ele>
        <time>2018-08-23T17:11:04Z</time>
      </trkpt>
      <trkpt lat="41.9811620" lon="-4.4992910">
        <ele>749.0</ele>
        <time>2018-08-23T17:11:14Z</time>
      </trkpt>
      <trkpt lat="41.9810300" lon="-4.4990310">
        <ele>749.2</ele>
        <time>2018-08-23T17:11:18Z</time>
      </trkpt>
      <trkpt lat="41.9807120" lon="-4.4984370">
        <ele>749.2</ele>
        <time>2018-08-23T17:11:27Z</time>
      </trkpt>
      <trkpt lat="41.9805050" lon="-4.4980430">
        <ele>750.2</ele>
        <time>2018-08-23T17:11:33Z</time>
      </trkpt>
      <trkpt lat="41.9801550" lon="-4.4974170">
        <ele>751.0</ele>
        <time>2018-08-23T17:11:43Z</time>
      </trkpt>
      <trkpt lat="41.9798640" lon="-4.4970340">
        <ele>751.2</ele>
        <time>2018-08-23T17:11:50Z</time>
      </trkpt>
      <trkpt lat="41.9797720" lon="-4.4969330">
        <ele>751.2</ele>
        <time>2018-08-23T17:11:52Z</time>
      </trkpt>
      <trkpt lat="41.9796700" lon="-4.4968320">
        <ele>751.2</ele>
        <time>2018-08-23T17:11:54Z</time>
      </trkpt>
      <trkpt lat="41.9796150" lon="-4.4967790">
        <ele>751.2</ele>
        <time>2018-08-23T17:11:55Z</time>
      </trkpt>
      <trkpt lat="41.9795580" lon="-4.4967240">
        <ele>751.2</ele>
        <time>2018-08-23T17:11:56Z</time>
      </trkpt>
      <trkpt lat="41.9794430" lon="-4.4966090">
        <ele>751.2</ele>
        <time>2018-08-23T17:11:58Z</time>
      </trkpt>
      <trkpt lat="41.9793250" lon="-4.4964660">
        <ele>751.0</ele>
        <time>2018-08-23T17:12:00Z</time>
      </trkpt>
      <trkpt lat="41.9792250" lon="-4.4963000">
        <ele>750.6</ele>
        <time>2018-08-23T17:12:02Z</time>
      </trkpt>
      <trkpt lat="41.9791630" lon="-4.4961090">
        <ele>750.0</ele>
        <time>2018-08-23T17:12:04Z</time>
      </trkpt>
      <trkpt lat="41.9791540" lon="-4.4960090">
        <ele>749.0</ele>
        <time>2018-08-23T17:12:05Z</time>
      </trkpt>
      <trkpt lat="41.9791600" lon="-4.4958130">
        <ele>748.0</ele>
        <time>2018-08-23T17:12:07Z</time>
      </trkpt>
      <trkpt lat="41.9791670" lon="-4.4957160">
        <ele>747.4</ele>
        <time>2018-08-23T17:12:08Z</time>
      </trkpt>
      <trkpt lat="41.9791820" lon="-4.4956080">
        <ele>746.6</ele>
        <time>2018-08-23T17:12:09Z</time>
      </trkpt>
      <trkpt lat="41.9791970" lon="-4.4955010">
        <ele>746.0</ele>
        <time>2018-08-23T17:12:10Z</time>
      </trkpt>
      <trkpt lat="41.9792120" lon="-4.4953930">
        <ele>744.8</ele>
        <time>2018-08-23T17:12:12Z</time>
      </trkpt>
      <trkpt lat="41.9792910" lon="-4.4951420">
        <ele>744.4</ele>
        <time>2018-08-23T17:12:15Z</time>
      </trkpt>
      <trkpt lat="41.9793260" lon="-4.4950640">
        <ele>744.4</ele>
        <time>2018-08-23T17:12:16Z</time>
      </trkpt>
      <trkpt lat="41.9794060" lon="-4.4949040">
        <ele>744.4</ele>
        <time>2018-08-23T17:12:18Z</time>
      </trkpt>
      <trkpt lat="41.9794350" lon="-4.4948210">
        <ele>744.4</ele>
        <time>2018-08-23T17:12:19Z</time>
      </trkpt>
      <trkpt lat="41.9794580" lon="-4.4946830">
        <ele>744.8</ele>
        <time>2018-08-23T17:12:21Z</time>
      </trkpt>
      <trkpt lat="41.9794260" lon="-4.4945780">
        <ele>745.4</ele>
        <time>2018-08-23T17:12:23Z</time>
      </trkpt>
      <trkpt lat="41.9794000" lon="-4.4945290">
        <ele>745.6</ele>
        <time>2018-08-23T17:12:24Z</time>
      </trkpt>
      <trkpt lat="41.9793690" lon="-4.4944790">
        <ele>746.0</ele>
        <time>2018-08-23T17:12:25Z</time>
      </trkpt>
      <trkpt lat="41.9793120" lon="-4.4943730">
        <ele>747.2</ele>
        <time>2018-08-23T17:12:27Z</time>
      </trkpt>
      <trkpt lat="41.9792580" lon="-4.4942570">
        <ele>747.6</ele>
        <time>2018-08-23T17:12:29Z</time>
      </trkpt>
      <trkpt lat="41.9792300" lon="-4.4942000">
        <ele>747.6</ele>
        <time>2018-08-23T17:12:30Z</time>
      </trkpt>
      <trkpt lat="41.9791980" lon="-4.4941430">
        <ele>747.6</ele>
        <time>2018-08-23T17:12:31Z</time>
      </trkpt>
      <trkpt lat="41.9791320" lon="-4.4940240">
        <ele>748.2</ele>
        <time>2018-08-23T17:12:33Z</time>
      </trkpt>
      <trkpt lat="41.9790350" lon="-4.4938470">
        <ele>748.8</ele>
        <time>2018-08-23T17:12:36Z</time>
      </trkpt>
      <trkpt lat="41.9789700" lon="-4.4937300">
        <ele>749.4</ele>
        <time>2018-08-23T17:12:38Z</time>
      </trkpt>
      <trkpt lat="41.9788710" lon="-4.4935560">
        <ele>749.8</ele>
        <time>2018-08-23T17:12:41Z</time>
      </trkpt>
      <trkpt lat="41.9787690" lon="-4.4933700">
        <ele>750.4</ele>
        <time>2018-08-23T17:12:44Z</time>
      </trkpt>
      <trkpt lat="41.9784700" lon="-4.4928320">
        <ele>751.4</ele>
        <time>2018-08-23T17:12:53Z</time>
      </trkpt>
      <trkpt lat="41.9780290" lon="-4.4924370">
        <ele>752.4</ele>
        <time>2018-08-23T17:13:02Z</time>
      </trkpt>
      <trkpt lat="41.9775740" lon="-4.4919660">
        <ele>752.8</ele>
        <time>2018-08-23T17:13:11Z</time>
      </trkpt>
      <trkpt lat="41.9774640" lon="-4.4917450">
        <ele>752.8</ele>
        <time>2018-08-23T17:13:14Z</time>
      </trkpt>
      <trkpt lat="41.9773660" lon="-4.4915520">
        <ele>752.4</ele>
        <time>2018-08-23T17:13:17Z</time>
      </trkpt>
      <trkpt lat="41.9771670" lon="-4.4911730">
        <ele>752.4</ele>
        <time>2018-08-23T17:13:23Z</time>
      </trkpt>
      <trkpt lat="41.9768870" lon="-4.4906040">
        <ele>752.4</ele>
        <time>2018-08-23T17:13:31Z</time>
      </trkpt>
      <trkpt lat="41.9765560" lon="-4.4899420">
        <ele>751.8</ele>
        <time>2018-08-23T17:13:40Z</time>
      </trkpt>
      <trkpt lat="41.9764790" lon="-4.4897950">
        <ele>751.6</ele>
        <time>2018-08-23T17:13:42Z</time>
      </trkpt>
      <trkpt lat="41.9764060" lon="-4.4896540">
        <ele>751.6</ele>
        <time>2018-08-23T17:13:44Z</time>
      </trkpt>
      <trkpt lat="41.9760950" lon="-4.4890060">
        <ele>750.6</ele>
        <time>2018-08-23T17:13:53Z</time>
      </trkpt>
      <trkpt lat="41.9760600" lon="-4.4889300">
        <ele>750.4</ele>
        <time>2018-08-23T17:13:54Z</time>
      </trkpt>
      <trkpt lat="41.9759160" lon="-4.4886350">
        <ele>750.2</ele>
        <time>2018-08-23T17:13:58Z</time>
      </trkpt>
      <trkpt lat="41.9758810" lon="-4.4885630">
        <ele>750.0</ele>
        <time>2018-08-23T17:13:59Z</time>
      </trkpt>
      <trkpt lat="41.9758440" lon="-4.4884900">
        <ele>750.0</ele>
        <time>2018-08-23T17:14:00Z</time>
      </trkpt>
      <trkpt lat="41.9758050" lon="-4.4884160">
        <ele>750.0</ele>
        <time>2018-08-23T17:14:01Z</time>
      </trkpt>
      <trkpt lat="41.9756890" lon="-4.4881980">
        <ele>749.8</ele>
        <time>2018-08-23T17:14:04Z</time>
      </trkpt>
      <trkpt lat="41.9755060" lon="-4.4878490">
        <ele>749.8</ele>
        <time>2018-08-23T17:14:09Z</time>
      </trkpt>
      <trkpt lat="41.9753940" lon="-4.4876400">
        <ele>749.6</ele>
        <time>2018-08-23T17:14:12Z</time>
      </trkpt>
      <trkpt lat="41.9753570" lon="-4.4875710">
        <ele>749.6</ele>
        <time>2018-08-23T17:14:13Z</time>
      </trkpt>
      <trkpt lat="41.9753200" lon="-4.4875020">
        <ele>749.6</ele>
        <time>2018-08-23T17:14:14Z</time>
      </trkpt>
      <trkpt lat="41.9752840" lon="-4.4874330">
        <ele>749.6</ele>
        <time>2018-08-23T17:14:15Z</time>
      </trkpt>
      <trkpt lat="41.9752480" lon="-4.4873660">
        <ele>749.6</ele>
        <time>2018-08-23T17:14:16Z</time>
      </trkpt>
      <trkpt lat="41.9752080" lon="-4.4872960">
        <ele>749.8</ele>
        <time>2018-08-23T17:14:17Z</time>
      </trkpt>
      <trkpt lat="41.9751680" lon="-4.4872270">
        <ele>749.8</ele>
        <time>2018-08-23T17:14:18Z</time>
      </trkpt>
      <trkpt lat="41.9751280" lon="-4.4871590">
        <ele>749.8</ele>
        <time>2018-08-23T17:14:19Z</time>
      </trkpt>
      <trkpt lat="41.9750860" lon="-4.4870860">
        <ele>749.8</ele>
        <time>2018-08-23T17:14:20Z</time>
      </trkpt>
      <trkpt lat="41.9749280" lon="-4.4868030">
        <ele>749.8</ele>
        <time>2018-08-23T17:14:24Z</time>
      </trkpt>
      <trkpt lat="41.9748910" lon="-4.4867350">
        <ele>749.8</ele>
        <time>2018-08-23T17:14:25Z</time>
      </trkpt>
      <trkpt lat="41.9747000" lon="-4.4863950">
        <ele>750.0</ele>
        <time>2018-08-23T17:14:30Z</time>
      </trkpt>
      <trkpt lat="41.9746610" lon="-4.4863260">
        <ele>750.0</ele>
        <time>2018-08-23T17:14:31Z</time>
      </trkpt>
      <trkpt lat="41.9745450" lon="-4.4861220">
        <ele>750.0</ele>
        <time>2018-08-23T17:14:34Z</time>
      </trkpt>
      <trkpt lat="41.9745060" lon="-4.4860550">
        <ele>750.0</ele>
        <time>2018-08-23T17:14:35Z</time>
      </trkpt>
      <trkpt lat="41.9744670" lon="-4.4859860">
        <ele>750.0</ele>
        <time>2018-08-23T17:14:36Z</time>
      </trkpt>
      <trkpt lat="41.9744270" lon="-4.4859170">
        <ele>750.0</ele>
        <time>2018-08-23T17:14:37Z</time>
      </trkpt>
      <trkpt lat="41.9743490" lon="-4.4857770">
        <ele>750.0</ele>
        <time>2018-08-23T17:14:39Z</time>
      </trkpt>
      <trkpt lat="41.9742670" lon="-4.4856370">
        <ele>750.2</ele>
        <time>2018-08-23T17:14:41Z</time>
      </trkpt>
      <trkpt lat="41.9742270" lon="-4.4855700">
        <ele>750.0</ele>
        <time>2018-08-23T17:14:42Z</time>
      </trkpt>
      <trkpt lat="41.9741490" lon="-4.4854300">
        <ele>750.2</ele>
        <time>2018-08-23T17:14:44Z</time>
      </trkpt>
      <trkpt lat="41.9741110" lon="-4.4853620">
        <ele>750.2</ele>
        <time>2018-08-23T17:14:45Z</time>
      </trkpt>
      <trkpt lat="41.9740740" lon="-4.4852920">
        <ele>750.2</ele>
        <time>2018-08-23T17:14:46Z</time>
      </trkpt>
      <trkpt lat="41.9739290" lon="-4.4850160">
        <ele>750.2</ele>
        <time>2018-08-23T17:14:50Z</time>
      </trkpt>
      <trkpt lat="41.9738920" lon="-4.4849440">
        <ele>750.2</ele>
        <time>2018-08-23T17:14:51Z</time>
      </trkpt>
      <trkpt lat="41.9738540" lon="-4.4848680">
        <ele>750.2</ele>
        <time>2018-08-23T17:14:52Z</time>
      </trkpt>
      <trkpt lat="41.9738190" lon="-4.4847940">
        <ele>750.4</ele>
        <time>2018-08-23T17:14:53Z</time>
      </trkpt>
      <trkpt lat="41.9737830" lon="-4.4847190">
        <ele>750.8</ele>
        <time>2018-08-23T17:14:54Z</time>
      </trkpt>
      <trkpt lat="41.9737490" lon="-4.4846460">
        <ele>750.8</ele>
        <time>2018-08-23T17:14:55Z</time>
      </trkpt>
      <trkpt lat="41.9737160" lon="-4.4845750">
        <ele>751.0</ele>
        <time>2018-08-23T17:14:56Z</time>
      </trkpt>
      <trkpt lat="41.9736830" lon="-4.4845020">
        <ele>751.2</ele>
        <time>2018-08-23T17:14:57Z</time>
      </trkpt>
      <trkpt lat="41.9734170" lon="-4.4838570">
        <ele>751.6</ele>
        <time>2018-08-23T17:15:06Z</time>
      </trkpt>
      <trkpt lat="41.9732870" lon="-4.4835030">
        <ele>751.6</ele>
        <time>2018-08-23T17:15:11Z</time>
      </trkpt>
      <trkpt lat="41.9730950" lon="-4.4828690">
        <ele>751.6</ele>
        <time>2018-08-23T17:15:20Z</time>
      </trkpt>
      <trkpt lat="41.9730760" lon="-4.4827990">
        <ele>751.6</ele>
        <time>2018-08-23T17:15:21Z</time>
      </trkpt>
      <trkpt lat="41.9730570" lon="-4.4827290">
        <ele>751.6</ele>
        <time>2018-08-23T17:15:22Z</time>
      </trkpt>
      <trkpt lat="41.9730390" lon="-4.4826570">
        <ele>751.8</ele>
        <time>2018-08-23T17:15:23Z</time>
      </trkpt>
      <trkpt lat="41.9730180" lon="-4.4825830">
        <ele>751.8</ele>
        <time>2018-08-23T17:15:24Z</time>
      </trkpt>
      <trkpt lat="41.9730000" lon="-4.4825100">
        <ele>752.0</ele>
        <time>2018-08-23T17:15:25Z</time>
      </trkpt>
      <trkpt lat="41.9729420" lon="-4.4822860">
        <ele>752.4</ele>
        <time>2018-08-23T17:15:28Z</time>
      </trkpt>
      <trkpt lat="41.9728010" lon="-4.4816790">
        <ele>753.0</ele>
        <time>2018-08-23T17:15:36Z</time>
      </trkpt>
      <trkpt lat="41.9727700" lon="-4.4815230">
        <ele>753.2</ele>
        <time>2018-08-23T17:15:38Z</time>
      </trkpt>
      <trkpt lat="41.9727540" lon="-4.4814460">
        <ele>753.2</ele>
        <time>2018-08-23T17:15:39Z</time>
      </trkpt>
      <trkpt lat="41.9726950" lon="-4.4811280">
        <ele>753.8</ele>
        <time>2018-08-23T17:15:43Z</time>
      </trkpt>
      <trkpt lat="41.9726830" lon="-4.4810490">
        <ele>754.0</ele>
        <time>2018-08-23T17:15:44Z</time>
      </trkpt>
      <trkpt lat="41.9726700" lon="-4.4809690">
        <ele>754.0</ele>
        <time>2018-08-23T17:15:45Z</time>
      </trkpt>
      <trkpt lat="41.9726570" lon="-4.4808870">
        <ele>754.2</ele>
        <time>2018-08-23T17:15:46Z</time>
      </trkpt>
      <trkpt lat="41.9726010" lon="-4.4804760">
        <ele>754.2</ele>
        <time>2018-08-23T17:15:51Z</time>
      </trkpt>
      <trkpt lat="41.9725810" lon="-4.4803120">
        <ele>754.2</ele>
        <time>2018-08-23T17:15:53Z</time>
      </trkpt>
      <trkpt lat="41.9725720" lon="-4.4802310">
        <ele>754.2</ele>
        <time>2018-08-23T17:15:54Z</time>
      </trkpt>
      <trkpt lat="41.9725360" lon="-4.4799270">
        <ele>753.8</ele>
        <time>2018-08-23T17:15:58Z</time>
      </trkpt>
      <trkpt lat="41.9725270" lon="-4.4798510">
        <ele>753.8</ele>
        <time>2018-08-23T17:15:59Z</time>
      </trkpt>
      <trkpt lat="41.9725190" lon="-4.4797760">
        <ele>753.8</ele>
        <time>2018-08-23T17:16:00Z</time>
      </trkpt>
      <trkpt lat="41.9725140" lon="-4.4796970">
        <ele>753.8</ele>
        <time>2018-08-23T17:16:01Z</time>
      </trkpt>
      <trkpt lat="41.9725060" lon="-4.4796190">
        <ele>753.6</ele>
        <time>2018-08-23T17:16:02Z</time>
      </trkpt>
      <trkpt lat="41.9725000" lon="-4.4795420">
        <ele>753.6</ele>
        <time>2018-08-23T17:16:03Z</time>
      </trkpt>
      <trkpt lat="41.9724900" lon="-4.4793030">
        <ele>753.4</ele>
        <time>2018-08-23T17:16:06Z</time>
      </trkpt>
      <trkpt lat="41.9724750" lon="-4.4788900">
        <ele>753.2</ele>
        <time>2018-08-23T17:16:11Z</time>
      </trkpt>
      <trkpt lat="41.9724650" lon="-4.4788040">
        <ele>753.2</ele>
        <time>2018-08-23T17:16:12Z</time>
      </trkpt>
      <trkpt lat="41.9724490" lon="-4.4787180">
        <ele>753.0</ele>
        <time>2018-08-23T17:16:13Z</time>
      </trkpt>
      <trkpt lat="41.9723900" lon="-4.4785680">
        <ele>752.2</ele>
        <time>2018-08-23T17:16:15Z</time>
      </trkpt>
      <trkpt lat="41.9723440" lon="-4.4785190">
        <ele>752.0</ele>
        <time>2018-08-23T17:16:16Z</time>
      </trkpt>
      <trkpt lat="41.9721800" lon="-4.4785400">
        <ele>751.8</ele>
        <time>2018-08-23T17:16:19Z</time>
      </trkpt>
      <trkpt lat="41.9721340" lon="-4.4786010">
        <ele>751.8</ele>
        <time>2018-08-23T17:16:20Z</time>
      </trkpt>
      <trkpt lat="41.9720890" lon="-4.4786720">
        <ele>751.4</ele>
        <time>2018-08-23T17:16:21Z</time>
      </trkpt>
      <trkpt lat="41.9720450" lon="-4.4787350">
        <ele>751.4</ele>
        <time>2018-08-23T17:16:22Z</time>
      </trkpt>
      <trkpt lat="41.9720010" lon="-4.4787980">
        <ele>751.2</ele>
        <time>2018-08-23T17:16:23Z</time>
      </trkpt>
      <trkpt lat="41.9719350" lon="-4.4788490">
        <ele>751.2</ele>
        <time>2018-08-23T17:16:24Z</time>
      </trkpt>
      <trkpt lat="41.9717660" lon="-4.4789250">
        <ele>751.0</ele>
        <time>2018-08-23T17:16:27Z</time>
      </trkpt>
      <trkpt lat="41.9716850" lon="-4.4789620">
        <ele>751.0</ele>
        <time>2018-08-23T17:16:28Z</time>
      </trkpt>
      <trkpt lat="41.9716070" lon="-4.4789740">
        <ele>751.0</ele>
        <time>2018-08-23T17:16:29Z</time>
      </trkpt>
      <trkpt lat="41.9714220" lon="-4.4789240">
        <ele>750.8</ele>
        <time>2018-08-23T17:16:32Z</time>
      </trkpt>
      <trkpt lat="41.9713730" lon="-4.4788800">
        <ele>750.8</ele>
        <time>2018-08-23T17:16:33Z</time>
      </trkpt>
      <trkpt lat="41.9713330" lon="-4.4788230">
        <ele>750.8</ele>
        <time>2018-08-23T17:16:34Z</time>
      </trkpt>
      <trkpt lat="41.9712530" lon="-4.4786140">
        <ele>750.6</ele>
        <time>2018-08-23T17:16:37Z</time>
      </trkpt>
      <trkpt lat="41.9712080" lon="-4.4784990">
        <ele>750.2</ele>
        <time>2018-08-23T17:16:39Z</time>
      </trkpt>
      <trkpt lat="41.9711740" lon="-4.4784700">
        <ele>750.2</ele>
        <time>2018-08-23T17:16:40Z</time>
      </trkpt>
      <trkpt lat="41.9711300" lon="-4.4784650">
        <ele>750.2</ele>
        <time>2018-08-23T17:16:41Z</time>
      </trkpt>
      <trkpt lat="41.9710790" lon="-4.4784810">
        <ele>750.2</ele>
        <time>2018-08-23T17:16:42Z</time>
      </trkpt>
      <trkpt lat="41.9710290" lon="-4.4785110">
        <ele>750.2</ele>
        <time>2018-08-23T17:16:43Z</time>
      </trkpt>
      <trkpt lat="41.9709820" lon="-4.4785480">
        <ele>750.0</ele>
        <time>2018-08-23T17:16:44Z</time>
      </trkpt>
      <trkpt lat="41.9707920" lon="-4.4786400">
        <ele>749.8</ele>
        <time>2018-08-23T17:16:47Z</time>
      </trkpt>
      <trkpt lat="41.9704460" lon="-4.4785090">
        <ele>749.2</ele>
        <time>2018-08-23T17:16:52Z</time>
      </trkpt>
      <trkpt lat="41.9703490" lon="-4.4783410">
        <ele>748.8</ele>
        <time>2018-08-23T17:16:54Z</time>
      </trkpt>
      <trkpt lat="41.9703070" lon="-4.4782440">
        <ele>748.6</ele>
        <time>2018-08-23T17:16:55Z</time>
      </trkpt>
      <trkpt lat="41.9702660" lon="-4.4781450">
        <ele>748.2</ele>
        <time>2018-08-23T17:16:56Z</time>
      </trkpt>
      <trkpt lat="41.9702270" lon="-4.4780450">
        <ele>747.8</ele>
        <time>2018-08-23T17:16:57Z</time>
      </trkpt>
      <trkpt lat="41.9701850" lon="-4.4779420">
        <ele>747.4</ele>
        <time>2018-08-23T17:16:58Z</time>
      </trkpt>
      <trkpt lat="41.9701430" lon="-4.4778400">
        <ele>747.0</ele>
        <time>2018-08-23T17:16:59Z</time>
      </trkpt>
      <trkpt lat="41.9701070" lon="-4.4777480">
        <ele>746.4</ele>
        <time>2018-08-23T17:17:00Z</time>
      </trkpt>
      <trkpt lat="41.9700360" lon="-4.4775720">
        <ele>745.4</ele>
        <time>2018-08-23T17:17:02Z</time>
      </trkpt>
      <trkpt lat="41.9699580" lon="-4.4774070">
        <ele>745.0</ele>
        <time>2018-08-23T17:17:04Z</time>
      </trkpt>
      <trkpt lat="41.9699210" lon="-4.4773210">
        <ele>744.8</ele>
        <time>2018-08-23T17:17:05Z</time>
      </trkpt>
      <trkpt lat="41.9698810" lon="-4.4772340">
        <ele>744.6</ele>
        <time>2018-08-23T17:17:06Z</time>
      </trkpt>
      <trkpt lat="41.9698120" lon="-4.4770680">
        <ele>744.4</ele>
        <time>2018-08-23T17:17:08Z</time>
      </trkpt>
      <trkpt lat="41.9697770" lon="-4.4769910">
        <ele>744.4</ele>
        <time>2018-08-23T17:17:09Z</time>
      </trkpt>
      <trkpt lat="41.9697410" lon="-4.4769170">
        <ele>744.2</ele>
        <time>2018-08-23T17:17:10Z</time>
      </trkpt>
      <trkpt lat="41.9695230" lon="-4.4764610">
        <ele>744.2</ele>
        <time>2018-08-23T17:17:16Z</time>
      </trkpt>
      <trkpt lat="41.9694870" lon="-4.4763850">
        <ele>744.2</ele>
        <time>2018-08-23T17:17:17Z</time>
      </trkpt>
      <trkpt lat="41.9694530" lon="-4.4763070">
        <ele>744.2</ele>
        <time>2018-08-23T17:17:18Z</time>
      </trkpt>
      <trkpt lat="41.9694210" lon="-4.4762330">
        <ele>744.0</ele>
        <time>2018-08-23T17:17:19Z</time>
      </trkpt>
      <trkpt lat="41.9693900" lon="-4.4761610">
        <ele>744.0</ele>
        <time>2018-08-23T17:17:20Z</time>
      </trkpt>
      <trkpt lat="41.9693600" lon="-4.4760880">
        <ele>744.0</ele>
        <time>2018-08-23T17:17:21Z</time>
      </trkpt>
      <trkpt lat="41.9693260" lon="-4.4760220">
        <ele>744.0</ele>
        <time>2018-08-23T17:17:22Z</time>
      </trkpt>
      <trkpt lat="41.9691710" lon="-4.4757660">
        <ele>744.2</ele>
        <time>2018-08-23T17:17:26Z</time>
      </trkpt>
      <trkpt lat="41.9690410" lon="-4.4755760">
        <ele>744.2</ele>
        <time>2018-08-23T17:17:29Z</time>
      </trkpt>
      <trkpt lat="41.9689510" lon="-4.4754490">
        <ele>744.2</ele>
        <time>2018-08-23T17:17:31Z</time>
      </trkpt>
      <trkpt lat="41.9688140" lon="-4.4752540">
        <ele>744.4</ele>
        <time>2018-08-23T17:17:34Z</time>
      </trkpt>
      <trkpt lat="41.9684210" lon="-4.4746910">
        <ele>744.8</ele>
        <time>2018-08-23T17:17:43Z</time>
      </trkpt>
      <trkpt lat="41.9680460" lon="-4.4741420">
        <ele>745.0</ele>
        <time>2018-08-23T17:17:52Z</time>
      </trkpt>
      <trkpt lat="41.9678880" lon="-4.4739090">
        <ele>745.2</ele>
        <time>2018-08-23T17:17:56Z</time>
      </trkpt>
      <trkpt lat="41.9676810" lon="-4.4736150">
        <ele>745.4</ele>
        <time>2018-08-23T17:18:01Z</time>
      </trkpt>
      <trkpt lat="41.9675150" lon="-4.4733740">
        <ele>745.2</ele>
        <time>2018-08-23T17:18:05Z</time>
      </trkpt>
      <trkpt lat="41.9673490" lon="-4.4731370">
        <ele>745.4</ele>
        <time>2018-08-23T17:18:09Z</time>
      </trkpt>
      <trkpt lat="41.9671870" lon="-4.4729040">
        <ele>745.4</ele>
        <time>2018-08-23T17:18:13Z</time>
      </trkpt>
      <trkpt lat="41.9671460" lon="-4.4728470">
        <ele>745.4</ele>
        <time>2018-08-23T17:18:14Z</time>
      </trkpt>
      <trkpt lat="41.9671050" lon="-4.4727910">
        <ele>745.4</ele>
        <time>2018-08-23T17:18:15Z</time>
      </trkpt>
      <trkpt lat="41.9670640" lon="-4.4727340">
        <ele>745.4</ele>
        <time>2018-08-23T17:18:16Z</time>
      </trkpt>
      <trkpt lat="41.9670240" lon="-4.4726780">
        <ele>745.4</ele>
        <time>2018-08-23T17:18:17Z</time>
      </trkpt>
      <trkpt lat="41.9669810" lon="-4.4726250">
        <ele>745.4</ele>
        <time>2018-08-23T17:18:18Z</time>
      </trkpt>
      <trkpt lat="41.9668970" lon="-4.4725160">
        <ele>745.4</ele>
        <time>2018-08-23T17:18:20Z</time>
      </trkpt>
      <trkpt lat="41.9668540" lon="-4.4724630">
        <ele>745.6</ele>
        <time>2018-08-23T17:18:21Z</time>
      </trkpt>
      <trkpt lat="41.9668100" lon="-4.4724080">
        <ele>745.6</ele>
        <time>2018-08-23T17:18:22Z</time>
      </trkpt>
      <trkpt lat="41.9667660" lon="-4.4723510">
        <ele>745.6</ele>
        <time>2018-08-23T17:18:23Z</time>
      </trkpt>
      <trkpt lat="41.9665360" lon="-4.4720770">
        <ele>745.8</ele>
        <time>2018-08-23T17:18:28Z</time>
      </trkpt>
      <trkpt lat="41.9661780" lon="-4.4715960">
        <ele>746.4</ele>
        <time>2018-08-23T17:18:36Z</time>
      </trkpt>
      <trkpt lat="41.9659390" lon="-4.4713000">
        <ele>747.0</ele>
        <time>2018-08-23T17:18:41Z</time>
      </trkpt>
      <trkpt lat="41.9658420" lon="-4.4711900">
        <ele>747.0</ele>
        <time>2018-08-23T17:18:43Z</time>
      </trkpt>
      <trkpt lat="41.9657460" lon="-4.4710770">
        <ele>747.0</ele>
        <time>2018-08-23T17:18:45Z</time>
      </trkpt>
      <trkpt lat="41.9653450" lon="-4.4705260">
        <ele>747.0</ele>
        <time>2018-08-23T17:18:54Z</time>
      </trkpt>
      <trkpt lat="41.9651190" lon="-4.4700890">
        <ele>746.8</ele>
        <time>2018-08-23T17:19:00Z</time>
      </trkpt>
      <trkpt lat="41.9648240" lon="-4.4694720">
        <ele>745.8</ele>
        <time>2018-08-23T17:19:08Z</time>
      </trkpt>
      <trkpt lat="41.9647520" lon="-4.4693170">
        <ele>745.6</ele>
        <time>2018-08-23T17:19:10Z</time>
      </trkpt>
      <trkpt lat="41.9647180" lon="-4.4692360">
        <ele>745.4</ele>
        <time>2018-08-23T17:19:11Z</time>
      </trkpt>
      <trkpt lat="41.9646840" lon="-4.4691520">
        <ele>745.4</ele>
        <time>2018-08-23T17:19:12Z</time>
      </trkpt>
      <trkpt lat="41.9645270" lon="-4.4686340">
        <ele>744.2</ele>
        <time>2018-08-23T17:19:18Z</time>
      </trkpt>
      <trkpt lat="41.9644250" lon="-4.4681960">
        <ele>743.4</ele>
        <time>2018-08-23T17:19:23Z</time>
      </trkpt>
      <trkpt lat="41.9644050" lon="-4.4681060">
        <ele>743.2</ele>
        <time>2018-08-23T17:19:24Z</time>
      </trkpt>
      <trkpt lat="41.9643840" lon="-4.4680170">
        <ele>743.2</ele>
        <time>2018-08-23T17:19:25Z</time>
      </trkpt>
      <trkpt lat="41.9643630" lon="-4.4679270">
        <ele>743.2</ele>
        <time>2018-08-23T17:19:26Z</time>
      </trkpt>
      <trkpt lat="41.9643220" lon="-4.4677520">
        <ele>743.0</ele>
        <time>2018-08-23T17:19:28Z</time>
      </trkpt>
      <trkpt lat="41.9643000" lon="-4.4676650">
        <ele>743.0</ele>
        <time>2018-08-23T17:19:29Z</time>
      </trkpt>
      <trkpt lat="41.9641480" lon="-4.4670420">
        <ele>742.6</ele>
        <time>2018-08-23T17:19:36Z</time>
      </trkpt>
      <trkpt lat="41.9641250" lon="-4.4669540">
        <ele>742.8</ele>
        <time>2018-08-23T17:19:37Z</time>
      </trkpt>
      <trkpt lat="41.9641030" lon="-4.4668650">
        <ele>742.8</ele>
        <time>2018-08-23T17:19:38Z</time>
      </trkpt>
      <trkpt lat="41.9640810" lon="-4.4667770">
        <ele>742.8</ele>
        <time>2018-08-23T17:19:39Z</time>
      </trkpt>
      <trkpt lat="41.9640210" lon="-4.4665230">
        <ele>742.8</ele>
        <time>2018-08-23T17:19:42Z</time>
      </trkpt>
      <trkpt lat="41.9640010" lon="-4.4664390">
        <ele>742.8</ele>
        <time>2018-08-23T17:19:43Z</time>
      </trkpt>
      <trkpt lat="41.9639620" lon="-4.4662730">
        <ele>742.8</ele>
        <time>2018-08-23T17:19:45Z</time>
      </trkpt>
      <trkpt lat="41.9639070" lon="-4.4660210">
        <ele>742.8</ele>
        <time>2018-08-23T17:19:48Z</time>
      </trkpt>
      <trkpt lat="41.9638890" lon="-4.4659380">
        <ele>742.8</ele>
        <time>2018-08-23T17:19:49Z</time>
      </trkpt>
      <trkpt lat="41.9638710" lon="-4.4658530">
        <ele>742.8</ele>
        <time>2018-08-23T17:19:50Z</time>
      </trkpt>
      <trkpt lat="41.9637420" lon="-4.4651940">
        <ele>743.2</ele>
        <time>2018-08-23T17:19:58Z</time>
      </trkpt>
      <trkpt lat="41.9636890" lon="-4.4648460">
        <ele>743.2</ele>
        <time>2018-08-23T17:20:02Z</time>
      </trkpt>
      <trkpt lat="41.9636360" lon="-4.4645020">
        <ele>743.2</ele>
        <time>2018-08-23T17:20:06Z</time>
      </trkpt>
      <trkpt lat="41.9636220" lon="-4.4644160">
        <ele>743.2</ele>
        <time>2018-08-23T17:20:07Z</time>
      </trkpt>
      <trkpt lat="41.9636100" lon="-4.4643270">
        <ele>743.2</ele>
        <time>2018-08-23T17:20:08Z</time>
      </trkpt>
      <trkpt lat="41.9635990" lon="-4.4642380">
        <ele>743.2</ele>
        <time>2018-08-23T17:20:09Z</time>
      </trkpt>
      <trkpt lat="41.9635870" lon="-4.4641510">
        <ele>743.2</ele>
        <time>2018-08-23T17:20:10Z</time>
      </trkpt>
      <trkpt lat="41.9635750" lon="-4.4640610">
        <ele>743.2</ele>
        <time>2018-08-23T17:20:11Z</time>
      </trkpt>
      <trkpt lat="41.9635650" lon="-4.4639730">
        <ele>743.4</ele>
        <time>2018-08-23T17:20:12Z</time>
      </trkpt>
      <trkpt lat="41.9635460" lon="-4.4637940">
        <ele>743.4</ele>
        <time>2018-08-23T17:20:14Z</time>
      </trkpt>
      <trkpt lat="41.9635370" lon="-4.4637080">
        <ele>743.2</ele>
        <time>2018-08-23T17:20:15Z</time>
      </trkpt>
      <trkpt lat="41.9635100" lon="-4.4634560">
        <ele>743.4</ele>
        <time>2018-08-23T17:20:18Z</time>
      </trkpt>
      <trkpt lat="41.9635010" lon="-4.4633730">
        <ele>743.4</ele>
        <time>2018-08-23T17:20:19Z</time>
      </trkpt>
      <trkpt lat="41.9634920" lon="-4.4632930">
        <ele>743.6</ele>
        <time>2018-08-23T17:20:20Z</time>
      </trkpt>
      <trkpt lat="41.9634830" lon="-4.4632110">
        <ele>743.8</ele>
        <time>2018-08-23T17:20:21Z</time>
      </trkpt>
      <trkpt lat="41.9634740" lon="-4.4631290">
        <ele>744.0</ele>
        <time>2018-08-23T17:20:22Z</time>
      </trkpt>
      <trkpt lat="41.9634670" lon="-4.4630440">
        <ele>744.2</ele>
        <time>2018-08-23T17:20:23Z</time>
      </trkpt>
      <trkpt lat="41.9634580" lon="-4.4629590">
        <ele>744.4</ele>
        <time>2018-08-23T17:20:24Z</time>
      </trkpt>
      <trkpt lat="41.9634490" lon="-4.4628780">
        <ele>744.4</ele>
        <time>2018-08-23T17:20:25Z</time>
      </trkpt>
      <trkpt lat="41.9634390" lon="-4.4627960">
        <ele>744.6</ele>
        <time>2018-08-23T17:20:26Z</time>
      </trkpt>
      <trkpt lat="41.9634300" lon="-4.4627160">
        <ele>744.8</ele>
        <time>2018-08-23T17:20:27Z</time>
      </trkpt>
      <trkpt lat="41.9634210" lon="-4.4626350">
        <ele>745.0</ele>
        <time>2018-08-23T17:20:28Z</time>
      </trkpt>
      <trkpt lat="41.9634130" lon="-4.4625540">
        <ele>745.2</ele>
        <time>2018-08-23T17:20:29Z</time>
      </trkpt>
      <trkpt lat="41.9633680" lon="-4.4621610">
        <ele>746.2</ele>
        <time>2018-08-23T17:20:34Z</time>
      </trkpt>
      <trkpt lat="41.9633240" lon="-4.4617750">
        <ele>747.2</ele>
        <time>2018-08-23T17:20:39Z</time>
      </trkpt>
      <trkpt lat="41.9633130" lon="-4.4617000">
        <ele>747.6</ele>
        <time>2018-08-23T17:20:40Z</time>
      </trkpt>
      <trkpt lat="41.9632990" lon="-4.4616260">
        <ele>747.8</ele>
        <time>2018-08-23T17:20:41Z</time>
      </trkpt>
      <trkpt lat="41.9632720" lon="-4.4614750">
        <ele>748.0</ele>
        <time>2018-08-23T17:20:43Z</time>
      </trkpt>
      <trkpt lat="41.9632570" lon="-4.4613980">
        <ele>748.2</ele>
        <time>2018-08-23T17:20:44Z</time>
      </trkpt>
      <trkpt lat="41.9632390" lon="-4.4613240">
        <ele>748.2</ele>
        <time>2018-08-23T17:20:45Z</time>
      </trkpt>
      <trkpt lat="41.9632220" lon="-4.4612520">
        <ele>748.2</ele>
        <time>2018-08-23T17:20:46Z</time>
      </trkpt>
      <trkpt lat="41.9632060" lon="-4.4611820">
        <ele>748.2</ele>
        <time>2018-08-23T17:20:47Z</time>
      </trkpt>
      <trkpt lat="41.9631890" lon="-4.4611140">
        <ele>748.8</ele>
        <time>2018-08-23T17:20:48Z</time>
      </trkpt>
      <trkpt lat="41.9631730" lon="-4.4610430">
        <ele>749.0</ele>
        <time>2018-08-23T17:20:49Z</time>
      </trkpt>
      <trkpt lat="41.9631580" lon="-4.4609760">
        <ele>749.2</ele>
        <time>2018-08-23T17:20:50Z</time>
      </trkpt>
      <trkpt lat="41.9631420" lon="-4.4609070">
        <ele>749.4</ele>
        <time>2018-08-23T17:20:51Z</time>
      </trkpt>
      <trkpt lat="41.9631310" lon="-4.4608390">
        <ele>749.6</ele>
        <time>2018-08-23T17:20:52Z</time>
      </trkpt>
      <trkpt lat="41.9631190" lon="-4.4607720">
        <ele>749.6</ele>
        <time>2018-08-23T17:20:53Z</time>
      </trkpt>
      <trkpt lat="41.9630970" lon="-4.4606360">
        <ele>749.8</ele>
        <time>2018-08-23T17:20:55Z</time>
      </trkpt>
      <trkpt lat="41.9629900" lon="-4.4598670">
        <ele>750.0</ele>
        <time>2018-08-23T17:21:06Z</time>
      </trkpt>
      <trkpt lat="41.9629110" lon="-4.4590890">
        <ele>750.8</ele>
        <time>2018-08-23T17:21:16Z</time>
      </trkpt>
      <trkpt lat="41.9629020" lon="-4.4590090">
        <ele>750.8</ele>
        <time>2018-08-23T17:21:17Z</time>
      </trkpt>
      <trkpt lat="41.9628630" lon="-4.4586960">
        <ele>751.0</ele>
        <time>2018-08-23T17:21:21Z</time>
      </trkpt>
      <trkpt lat="41.9628500" lon="-4.4586180">
        <ele>751.0</ele>
        <time>2018-08-23T17:21:22Z</time>
      </trkpt>
      <trkpt lat="41.9628220" lon="-4.4584610">
        <ele>751.0</ele>
        <time>2018-08-23T17:21:24Z</time>
      </trkpt>
      <trkpt lat="41.9627860" lon="-4.4583070">
        <ele>751.0</ele>
        <time>2018-08-23T17:21:26Z</time>
      </trkpt>
      <trkpt lat="41.9627670" lon="-4.4582290">
        <ele>751.2</ele>
        <time>2018-08-23T17:21:27Z</time>
      </trkpt>
      <trkpt lat="41.9627420" lon="-4.4581550">
        <ele>751.2</ele>
        <time>2018-08-23T17:21:28Z</time>
      </trkpt>
      <trkpt lat="41.9626310" lon="-4.4578720">
        <ele>751.6</ele>
        <time>2018-08-23T17:21:32Z</time>
      </trkpt>
      <trkpt lat="41.9624940" lon="-4.4576040">
        <ele>751.8</ele>
        <time>2018-08-23T17:21:36Z</time>
      </trkpt>
      <trkpt lat="41.9624570" lon="-4.4575400">
        <ele>751.8</ele>
        <time>2018-08-23T17:21:37Z</time>
      </trkpt>
      <trkpt lat="41.9623700" lon="-4.4574360">
        <ele>751.8</ele>
        <time>2018-08-23T17:21:39Z</time>
      </trkpt>
      <trkpt lat="41.9623190" lon="-4.4574040">
        <ele>751.8</ele>
        <time>2018-08-23T17:21:40Z</time>
      </trkpt>
      <trkpt lat="41.9622490" lon="-4.4573340">
        <ele>752.0</ele>
        <time>2018-08-23T17:21:42Z</time>
      </trkpt>
      <trkpt lat="41.9621650" lon="-4.4572420">
        <ele>752.0</ele>
        <time>2018-08-23T17:21:44Z</time>
      </trkpt>
      <trkpt lat="41.9620810" lon="-4.4571410">
        <ele>752.2</ele>
        <time>2018-08-23T17:21:46Z</time>
      </trkpt>
      <trkpt lat="41.9619030" lon="-4.4568960">
        <ele>752.4</ele>
        <time>2018-08-23T17:21:50Z</time>
      </trkpt>
      <trkpt lat="41.9618570" lon="-4.4568370">
        <ele>752.4</ele>
        <time>2018-08-23T17:21:51Z</time>
      </trkpt>
      <trkpt lat="41.9618120" lon="-4.4567790">
        <ele>752.4</ele>
        <time>2018-08-23T17:21:52Z</time>
      </trkpt>
      <trkpt lat="41.9617660" lon="-4.4567230">
        <ele>752.4</ele>
        <time>2018-08-23T17:21:53Z</time>
      </trkpt>
      <trkpt lat="41.9616650" lon="-4.4565990">
        <ele>752.4</ele>
        <time>2018-08-23T17:21:55Z</time>
      </trkpt>
      <trkpt lat="41.9613290" lon="-4.4561940">
        <ele>752.6</ele>
        <time>2018-08-23T17:22:02Z</time>
      </trkpt>
      <trkpt lat="41.9610430" lon="-4.4558600">
        <ele>753.0</ele>
        <time>2018-08-23T17:22:08Z</time>
      </trkpt>
      <trkpt lat="41.9606390" lon="-4.4552930">
        <ele>753.4</ele>
        <time>2018-08-23T17:22:17Z</time>
      </trkpt>
      <trkpt lat="41.9605580" lon="-4.4551510">
        <ele>753.4</ele>
        <time>2018-08-23T17:22:19Z</time>
      </trkpt>
      <trkpt lat="41.9602950" lon="-4.4545420">
        <ele>752.4</ele>
        <time>2018-08-23T17:22:26Z</time>
      </trkpt>
      <trkpt lat="41.9601810" lon="-4.4541630">
        <ele>751.6</ele>
        <time>2018-08-23T17:22:30Z</time>
      </trkpt>
      <trkpt lat="41.9601390" lon="-4.4539640">
        <ele>750.2</ele>
        <time>2018-08-23T17:22:32Z</time>
      </trkpt>
      <trkpt lat="41.9601230" lon="-4.4538670">
        <ele>749.6</ele>
        <time>2018-08-23T17:22:33Z</time>
      </trkpt>
      <trkpt lat="41.9601040" lon="-4.4537590">
        <ele>749.2</ele>
        <time>2018-08-23T17:22:34Z</time>
      </trkpt>
      <trkpt lat="41.9600720" lon="-4.4535430">
        <ele>747.8</ele>
        <time>2018-08-23T17:22:36Z</time>
      </trkpt>
      <trkpt lat="41.9600270" lon="-4.4533120">
        <ele>747.2</ele>
        <time>2018-08-23T17:22:38Z</time>
      </trkpt>
      <trkpt lat="41.9599800" lon="-4.4530780">
        <ele>747.0</ele>
        <time>2018-08-23T17:22:40Z</time>
      </trkpt>
      <trkpt lat="41.9599530" lon="-4.4529600">
        <ele>746.8</ele>
        <time>2018-08-23T17:22:41Z</time>
      </trkpt>
      <trkpt lat="41.9599270" lon="-4.4528440">
        <ele>746.8</ele>
        <time>2018-08-23T17:22:42Z</time>
      </trkpt>
      <trkpt lat="41.9598720" lon="-4.4526110">
        <ele>746.6</ele>
        <time>2018-08-23T17:22:44Z</time>
      </trkpt>
      <trkpt lat="41.9598450" lon="-4.4524920">
        <ele>746.4</ele>
        <time>2018-08-23T17:22:45Z</time>
      </trkpt>
      <trkpt lat="41.9597920" lon="-4.4522600">
        <ele>745.4</ele>
        <time>2018-08-23T17:22:47Z</time>
      </trkpt>
      <trkpt lat="41.9597390" lon="-4.4520260">
        <ele>744.0</ele>
        <time>2018-08-23T17:22:49Z</time>
      </trkpt>
      <trkpt lat="41.9596860" lon="-4.4518030">
        <ele>743.0</ele>
        <time>2018-08-23T17:22:51Z</time>
      </trkpt>
      <trkpt lat="41.9596360" lon="-4.4515850">
        <ele>741.6</ele>
        <time>2018-08-23T17:22:53Z</time>
      </trkpt>
      <trkpt lat="41.9595640" lon="-4.4512590">
        <ele>740.6</ele>
        <time>2018-08-23T17:22:56Z</time>
      </trkpt>
      <trkpt lat="41.9595420" lon="-4.4511530">
        <ele>740.2</ele>
        <time>2018-08-23T17:22:57Z</time>
      </trkpt>
      <trkpt lat="41.9595230" lon="-4.4510510">
        <ele>740.2</ele>
        <time>2018-08-23T17:22:58Z</time>
      </trkpt>
      <trkpt lat="41.9595040" lon="-4.4509550">
        <ele>740.0</ele>
        <time>2018-08-23T17:22:59Z</time>
      </trkpt>
      <trkpt lat="41.9594420" lon="-4.4507160">
        <ele>740.0</ele>
        <time>2018-08-23T17:23:03Z</time>
      </trkpt>
      <trkpt lat="41.9594340" lon="-4.4506840">
        <ele>740.0</ele>
        <time>2018-08-23T17:23:04Z</time>
      </trkpt>
      <trkpt lat="41.9594090" lon="-4.4505830">
        <ele>740.0</ele>
        <time>2018-08-23T17:23:07Z</time>
      </trkpt>
      <trkpt lat="41.9594020" lon="-4.4505350">
        <ele>740.0</ele>
        <time>2018-08-23T17:23:08Z</time>
      </trkpt>
      <trkpt lat="41.9593950" lon="-4.4504830">
        <ele>740.0</ele>
        <time>2018-08-23T17:23:09Z</time>
      </trkpt>
      <trkpt lat="41.9593860" lon="-4.4504270">
        <ele>740.0</ele>
        <time>2018-08-23T17:23:10Z</time>
      </trkpt>
      <trkpt lat="41.9593730" lon="-4.4503680">
        <ele>740.0</ele>
        <time>2018-08-23T17:23:11Z</time>
      </trkpt>
      <trkpt lat="41.9592720" lon="-4.4500160">
        <ele>739.4</ele>
        <time>2018-08-23T17:23:17Z</time>
      </trkpt>
      <trkpt lat="41.9592350" lon="-4.4498870">
        <ele>739.0</ele>
        <time>2018-08-23T17:23:19Z</time>
      </trkpt>
      <trkpt lat="41.9591580" lon="-4.4495370">
        <ele>738.6</ele>
        <time>2018-08-23T17:23:24Z</time>
      </trkpt>
      <trkpt lat="41.9591420" lon="-4.4494580">
        <ele>738.4</ele>
        <time>2018-08-23T17:23:25Z</time>
      </trkpt>
      <trkpt lat="41.9590870" lon="-4.4492200">
        <ele>737.6</ele>
        <time>2018-08-23T17:23:28Z</time>
      </trkpt>
      <trkpt lat="41.9590480" lon="-4.4490600">
        <ele>737.2</ele>
        <time>2018-08-23T17:23:30Z</time>
      </trkpt>
      <trkpt lat="41.9590300" lon="-4.4489820">
        <ele>737.2</ele>
        <time>2018-08-23T17:23:31Z</time>
      </trkpt>
      <trkpt lat="41.9590080" lon="-4.4489010">
        <ele>737.2</ele>
        <time>2018-08-23T17:23:32Z</time>
      </trkpt>
      <trkpt lat="41.9589880" lon="-4.4488220">
        <ele>736.8</ele>
        <time>2018-08-23T17:23:33Z</time>
      </trkpt>
      <trkpt lat="41.9589710" lon="-4.4487420">
        <ele>736.4</ele>
        <time>2018-08-23T17:23:34Z</time>
      </trkpt>
      <trkpt lat="41.9589560" lon="-4.4486600">
        <ele>736.2</ele>
        <time>2018-08-23T17:23:35Z</time>
      </trkpt>
      <trkpt lat="41.9589460" lon="-4.4485810">
        <ele>736.0</ele>
        <time>2018-08-23T17:23:36Z</time>
      </trkpt>
      <trkpt lat="41.9589120" lon="-4.4483490">
        <ele>735.4</ele>
        <time>2018-08-23T17:23:39Z</time>
      </trkpt>
      <trkpt lat="41.9589020" lon="-4.4482700">
        <ele>735.2</ele>
        <time>2018-08-23T17:23:40Z</time>
      </trkpt>
      <trkpt lat="41.9588730" lon="-4.4480150">
        <ele>734.4</ele>
        <time>2018-08-23T17:23:43Z</time>
      </trkpt>
      <trkpt lat="41.9588700" lon="-4.4479240">
        <ele>734.4</ele>
        <time>2018-08-23T17:23:44Z</time>
      </trkpt>
      <trkpt lat="41.9588690" lon="-4.4478320">
        <ele>734.2</ele>
        <time>2018-08-23T17:23:45Z</time>
      </trkpt>
      <trkpt lat="41.9588710" lon="-4.4477390">
        <ele>734.0</ele>
        <time>2018-08-23T17:23:46Z</time>
      </trkpt>
      <trkpt lat="41.9588710" lon="-4.4476420">
        <ele>733.6</ele>
        <time>2018-08-23T17:23:47Z</time>
      </trkpt>
      <trkpt lat="41.9588740" lon="-4.4475410">
        <ele>733.2</ele>
        <time>2018-08-23T17:23:48Z</time>
      </trkpt>
      <trkpt lat="41.9588810" lon="-4.4474410">
        <ele>732.8</ele>
        <time>2018-08-23T17:23:49Z</time>
      </trkpt>
      <trkpt lat="41.9588850" lon="-4.4473410">
        <ele>732.6</ele>
        <time>2018-08-23T17:23:50Z</time>
      </trkpt>
      <trkpt lat="41.9588900" lon="-4.4472420">
        <ele>732.0</ele>
        <time>2018-08-23T17:23:51Z</time>
      </trkpt>
      <trkpt lat="41.9588950" lon="-4.4471460">
        <ele>731.6</ele>
        <time>2018-08-23T17:23:52Z</time>
      </trkpt>
      <trkpt lat="41.9588680" lon="-4.4463980">
        <ele>731.0</ele>
        <time>2018-08-23T17:24:01Z</time>
      </trkpt>
      <trkpt lat="41.9588570" lon="-4.4463310">
        <ele>731.0</ele>
        <time>2018-08-23T17:24:02Z</time>
      </trkpt>
      <trkpt lat="41.9588430" lon="-4.4462680">
        <ele>731.0</ele>
        <time>2018-08-23T17:24:03Z</time>
      </trkpt>
      <trkpt lat="41.9588110" lon="-4.4461480">
        <ele>731.4</ele>
        <time>2018-08-23T17:24:05Z</time>
      </trkpt>
      <trkpt lat="41.9587950" lon="-4.4460930">
        <ele>731.8</ele>
        <time>2018-08-23T17:24:06Z</time>
      </trkpt>
      <trkpt lat="41.9587550" lon="-4.4459840">
        <ele>732.0</ele>
        <time>2018-08-23T17:24:08Z</time>
      </trkpt>
      <trkpt lat="41.9587310" lon="-4.4459280">
        <ele>732.2</ele>
        <time>2018-08-23T17:24:09Z</time>
      </trkpt>
      <trkpt lat="41.9587050" lon="-4.4458730">
        <ele>732.4</ele>
        <time>2018-08-23T17:24:10Z</time>
      </trkpt>
      <trkpt lat="41.9586740" lon="-4.4458160">
        <ele>733.0</ele>
        <time>2018-08-23T17:24:11Z</time>
      </trkpt>
      <trkpt lat="41.9586410" lon="-4.4457590">
        <ele>733.2</ele>
        <time>2018-08-23T17:24:12Z</time>
      </trkpt>
      <trkpt lat="41.9586090" lon="-4.4457070">
        <ele>733.4</ele>
        <time>2018-08-23T17:24:13Z</time>
      </trkpt>
      <trkpt lat="41.9585350" lon="-4.4456040">
        <ele>734.2</ele>
        <time>2018-08-23T17:24:15Z</time>
      </trkpt>
      <trkpt lat="41.9585000" lon="-4.4455530">
        <ele>734.4</ele>
        <time>2018-08-23T17:24:16Z</time>
      </trkpt>
      <trkpt lat="41.9584330" lon="-4.4454510">
        <ele>734.8</ele>
        <time>2018-08-23T17:24:18Z</time>
      </trkpt>
      <trkpt lat="41.9583560" lon="-4.4453460">
        <ele>735.0</ele>
        <time>2018-08-23T17:24:20Z</time>
      </trkpt>
      <trkpt lat="41.9583130" lon="-4.4452930">
        <ele>735.0</ele>
        <time>2018-08-23T17:24:21Z</time>
      </trkpt>
      <trkpt lat="41.9582700" lon="-4.4452390">
        <ele>735.2</ele>
        <time>2018-08-23T17:24:22Z</time>
      </trkpt>
      <trkpt lat="41.9580670" lon="-4.4449980">
        <ele>735.2</ele>
        <time>2018-08-23T17:24:26Z</time>
      </trkpt>
      <trkpt lat="41.9577820" lon="-4.4446580">
        <ele>733.6</ele>
        <time>2018-08-23T17:24:31Z</time>
      </trkpt>
      <trkpt lat="41.9576500" lon="-4.4444930">
        <ele>733.0</ele>
        <time>2018-08-23T17:24:33Z</time>
      </trkpt>
      <trkpt lat="41.9572220" lon="-4.4439540">
        <ele>731.8</ele>
        <time>2018-08-23T17:24:39Z</time>
      </trkpt>
      <trkpt lat="41.9571500" lon="-4.4438660">
        <ele>729.8</ele>
        <time>2018-08-23T17:24:40Z</time>
      </trkpt>
      <trkpt lat="41.9563890" lon="-4.4404200">
        <ele>719.9</ele>
        <time>2018-08-23T17:25:16Z</time>
      </trkpt>
      <trkpt lat="41.9564140" lon="-4.4403370">
        <ele>719.8</ele>
        <time>2018-08-23T17:25:17Z</time>
      </trkpt>
      <trkpt lat="41.9564430" lon="-4.4402560">
        <ele>719.8</ele>
        <time>2018-08-23T17:25:18Z</time>
      </trkpt>
      <trkpt lat="41.9564710" lon="-4.4401720">
        <ele>719.8</ele>
        <time>2018-08-23T17:25:19Z</time>
      </trkpt>
      <trkpt lat="41.9565080" lon="-4.4400930">
        <ele>719.8</ele>
        <time>2018-08-23T17:25:20Z</time>
      </trkpt>
      <trkpt lat="41.9565540" lon="-4.4400190">
        <ele>719.8</ele>
        <time>2018-08-23T17:25:21Z</time>
      </trkpt>
      <trkpt lat="41.9565970" lon="-4.4399470">
        <ele>719.8</ele>
        <time>2018-08-23T17:25:22Z</time>
      </trkpt>
      <trkpt lat="41.9566360" lon="-4.4398750">
        <ele>719.9</ele>
        <time>2018-08-23T17:25:23Z</time>
      </trkpt>
      <trkpt lat="41.9566780" lon="-4.4398060">
        <ele>719.9</ele>
        <time>2018-08-23T17:25:24Z</time>
      </trkpt>
      <trkpt lat="41.9567150" lon="-4.4397320">
        <ele>723.3</ele>
        <time>2018-08-23T17:25:25Z</time>
      </trkpt>
      <trkpt lat="41.9418360" lon="-4.4216890">
        <ele>743.1</ele>
        <time>2018-08-23T17:31:39Z</time>
      </trkpt>
      <trkpt lat="41.9417860" lon="-4.4216340">
        <ele>743.4</ele>
        <time>2018-08-23T17:31:41Z</time>
      </trkpt>
      <trkpt lat="41.9417550" lon="-4.4215860">
        <ele>743.6</ele>
        <time>2018-08-23T17:31:42Z</time>
      </trkpt>
      <trkpt lat="41.9417170" lon="-4.4215430">
        <ele>743.8</ele>
        <time>2018-08-23T17:31:43Z</time>
      </trkpt>
      <trkpt lat="41.9416750" lon="-4.4214980">
        <ele>744.0</ele>
        <time>2018-08-23T17:31:44Z</time>
      </trkpt>
      <trkpt lat="41.9416300" lon="-4.4214480">
        <ele>744.4</ele>
        <time>2018-08-23T17:31:45Z</time>
      </trkpt>
      <trkpt lat="41.9415840" lon="-4.4214110">
        <ele>744.6</ele>
        <time>2018-08-23T17:31:46Z</time>
      </trkpt>
      <trkpt lat="41.9415450" lon="-4.4213780">
        <ele>744.8</ele>
        <time>2018-08-23T17:31:47Z</time>
      </trkpt>
      <trkpt lat="41.9415030" lon="-4.4213420">
        <ele>745.0</ele>
        <time>2018-08-23T17:31:48Z</time>
      </trkpt>
      <trkpt lat="41.9414620" lon="-4.4213030">
        <ele>745.2</ele>
        <time>2018-08-23T17:31:49Z</time>
      </trkpt>
      <trkpt lat="41.9414180" lon="-4.4212620">
        <ele>745.4</ele>
        <time>2018-08-23T17:31:50Z</time>
      </trkpt>
      <trkpt lat="41.9413780" lon="-4.4212260">
        <ele>745.6</ele>
        <time>2018-08-23T17:31:51Z</time>
      </trkpt>
      <trkpt lat="41.9413370" lon="-4.4211870">
        <ele>745.8</ele>
        <time>2018-08-23T17:31:52Z</time>
      </trkpt>
      <trkpt lat="41.9412980" lon="-4.4211520">
        <ele>746.0</ele>
        <time>2018-08-23T17:31:53Z</time>
      </trkpt>
      <trkpt lat="41.9412580" lon="-4.4211160">
        <ele>746.2</ele>
        <time>2018-08-23T17:31:54Z</time>
      </trkpt>
      <trkpt lat="41.9412170" lon="-4.4210780">
        <ele>746.4</ele>
        <time>2018-08-23T17:31:55Z</time>
      </trkpt>
      <trkpt lat="41.9411740" lon="-4.4210390">
        <ele>746.6</ele>
        <time>2018-08-23T17:31:56Z</time>
      </trkpt>
      <trkpt lat="41.9411310" lon="-4.4210040">
        <ele>746.8</ele>
        <time>2018-08-23T17:31:57Z</time>
      </trkpt>
      <trkpt lat="41.9410910" lon="-4.4209620">
        <ele>747.0</ele>
        <time>2018-08-23T17:31:58Z</time>
      </trkpt>
      <trkpt lat="41.9410500" lon="-4.4209230">
        <ele>747.3</ele>
        <time>2018-08-23T17:31:59Z</time>
      </trkpt>
      <trkpt lat="41.9410080" lon="-4.4208860">
        <ele>747.6</ele>
        <time>2018-08-23T17:32:00Z</time>
      </trkpt>
      <trkpt lat="41.9409660" lon="-4.4208450">
        <ele>747.8</ele>
        <time>2018-08-23T17:32:01Z</time>
      </trkpt>
      <trkpt lat="41.9409280" lon="-4.4208050">
        <ele>748.0</ele>
        <time>2018-08-23T17:32:02Z</time>
      </trkpt>
      <trkpt lat="41.9408870" lon="-4.4207670">
        <ele>748.2</ele>
        <time>2018-08-23T17:32:03Z</time>
      </trkpt>
      <trkpt lat="41.9408480" lon="-4.4207290">
        <ele>748.3</ele>
        <time>2018-08-23T17:32:04Z</time>
      </trkpt>
      <trkpt lat="41.9408100" lon="-4.4206900">
        <ele>748.5</ele>
        <time>2018-08-23T17:32:05Z</time>
      </trkpt>
      <trkpt lat="41.9407680" lon="-4.4206530">
        <ele>748.7</ele>
        <time>2018-08-23T17:32:06Z</time>
      </trkpt>
      <trkpt lat="41.9407250" lon="-4.4206190">
        <ele>748.9</ele>
        <time>2018-08-23T17:32:07Z</time>
      </trkpt>
      <trkpt lat="41.9406870" lon="-4.4205830">
        <ele>749.1</ele>
        <time>2018-08-23T17:32:08Z</time>
      </trkpt>
      <trkpt lat="41.9406460" lon="-4.4205480">
        <ele>749.3</ele>
        <time>2018-08-23T17:32:09Z</time>
      </trkpt>
      <trkpt lat="41.9406010" lon="-4.4205110">
        <ele>749.5</ele>
        <time>2018-08-23T17:32:10Z</time>
      </trkpt>
      <trkpt lat="41.9405580" lon="-4.4204750">
        <ele>749.7</ele>
        <time>2018-08-23T17:32:11Z</time>
      </trkpt>
      <trkpt lat="41.9405160" lon="-4.4204390">
        <ele>749.9</ele>
        <time>2018-08-23T17:32:12Z</time>
      </trkpt>
      <trkpt lat="41.9404750" lon="-4.4204020">
        <ele>750.2</ele>
        <time>2018-08-23T17:32:13Z</time>
      </trkpt>
      <trkpt lat="41.9404360" lon="-4.4203610">
        <ele>750.5</ele>
        <time>2018-08-23T17:32:14Z</time>
      </trkpt>
      <trkpt lat="41.9403960" lon="-4.4203230">
        <ele>750.7</ele>
        <time>2018-08-23T17:32:15Z</time>
      </trkpt>
      <trkpt lat="41.9403550" lon="-4.4202850">
        <ele>750.9</ele>
        <time>2018-08-23T17:32:16Z</time>
      </trkpt>
      <trkpt lat="41.9403150" lon="-4.4202500">
        <ele>751.1</ele>
        <time>2018-08-23T17:32:17Z</time>
      </trkpt>
      <trkpt lat="41.9402720" lon="-4.4202090">
        <ele>751.3</ele>
        <time>2018-08-23T17:32:18Z</time>
      </trkpt>
      <trkpt lat="41.9402350" lon="-4.4201700">
        <ele>751.4</ele>
        <time>2018-08-23T17:32:19Z</time>
      </trkpt>
      <trkpt lat="41.9401940" lon="-4.4201340">
        <ele>751.6</ele>
        <time>2018-08-23T17:32:20Z</time>
      </trkpt>
      <trkpt lat="41.9401550" lon="-4.4200960">
        <ele>751.8</ele>
        <time>2018-08-23T17:32:21Z</time>
      </trkpt>
      <trkpt lat="41.9401170" lon="-4.4200560">
        <ele>752.0</ele>
        <time>2018-08-23T17:32:22Z</time>
      </trkpt>
      <trkpt lat="41.9400800" lon="-4.4200170">
        <ele>752.2</ele>
        <time>2018-08-23T17:32:23Z</time>
      </trkpt>
      <trkpt lat="41.9400410" lon="-4.4199800">
        <ele>752.4</ele>
        <time>2018-08-23T17:32:24Z</time>
      </trkpt>
      <trkpt lat="41.9400020" lon="-4.4199420">
        <ele>752.6</ele>
        <time>2018-08-23T17:32:25Z</time>
      </trkpt>
      <trkpt lat="41.9399640" lon="-4.4199030">
        <ele>752.8</ele>
        <time>2018-08-23T17:32:26Z</time>
      </trkpt>
      <trkpt lat="41.9399250" lon="-4.4198640">
        <ele>753.0</ele>
        <time>2018-08-23T17:32:27Z</time>
      </trkpt>
      <trkpt lat="41.9398870" lon="-4.4198250">
        <ele>753.2</ele>
        <time>2018-08-23T17:32:28Z</time>
      </trkpt>
      <trkpt lat="41.9398540" lon="-4.4197930">
        <ele>753.4</ele>
        <time>2018-08-23T17:32:29Z</time>
      </trkpt>
      <trkpt lat="41.9398160" lon="-4.4197570">
        <ele>753.5</ele>
        <time>2018-08-23T17:32:30Z</time>
      </trkpt>
      <trkpt lat="41.9397730" lon="-4.4197170">
        <ele>753.8</ele>
        <time>2018-08-23T17:32:31Z</time>
      </trkpt>
      <trkpt lat="41.9397330" lon="-4.4196830">
        <ele>754.0</ele>
        <time>2018-08-23T17:32:32Z</time>
      </trkpt>
      <trkpt lat="41.9396950" lon="-4.4196460">
        <ele>754.1</ele>
        <time>2018-08-23T17:32:33Z</time>
      </trkpt>
      <trkpt lat="41.9396570" lon="-4.4196100">
        <ele>754.3</ele>
        <time>2018-08-23T17:32:34Z</time>
      </trkpt>
      <trkpt lat="41.9396180" lon="-4.4195770">
        <ele>754.5</ele>
        <time>2018-08-23T17:32:35Z</time>
      </trkpt>
      <trkpt lat="41.9395790" lon="-4.4195440">
        <ele>754.7</ele>
        <time>2018-08-23T17:32:36Z</time>
      </trkpt>
      <trkpt lat="41.9395390" lon="-4.4195100">
        <ele>754.9</ele>
        <time>2018-08-23T17:32:37Z</time>
      </trkpt>
      <trkpt lat="41.9395040" lon="-4.4194730">
        <ele>755.1</ele>
        <time>2018-08-23T17:32:38Z</time>
      </trkpt>
      <trkpt lat="41.9394700" lon="-4.4194360">
        <ele>755.3</ele>
        <time>2018-08-23T17:32:39Z</time>
      </trkpt>
      <trkpt lat="41.9394340" lon="-4.4194020">
        <ele>755.4</ele>
        <time>2018-08-23T17:32:40Z</time>
      </trkpt>
      <trkpt lat="41.9393970" lon="-4.4193690">
        <ele>755.6</ele>
        <time>2018-08-23T17:32:41Z</time>
      </trkpt>
      <trkpt lat="41.9393600" lon="-4.4193340">
        <ele>755.8</ele>
        <time>2018-08-23T17:32:42Z</time>
      </trkpt>
      <trkpt lat="41.9393220" lon="-4.4192990">
        <ele>756.0</ele>
        <time>2018-08-23T17:32:43Z</time>
      </trkpt>
      <trkpt lat="41.9392830" lon="-4.4192630">
        <ele>756.2</ele>
        <time>2018-08-23T17:32:44Z</time>
      </trkpt>
      <trkpt lat="41.9392440" lon="-4.4192280">
        <ele>756.4</ele>
        <time>2018-08-23T17:32:45Z</time>
      </trkpt>
      <trkpt lat="41.9392060" lon="-4.4191890">
        <ele>756.6</ele>
        <time>2018-08-23T17:32:46Z</time>
      </trkpt>
      <trkpt lat="41.9391690" lon="-4.4191510">
        <ele>756.7</ele>
        <time>2018-08-23T17:32:47Z</time>
      </trkpt>
      <trkpt lat="41.9391300" lon="-4.4191110">
        <ele>756.9</ele>
        <time>2018-08-23T17:32:48Z</time>
      </trkpt>
      <trkpt lat="41.9390910" lon="-4.4190770">
        <ele>757.1</ele>
        <time>2018-08-23T17:32:49Z</time>
      </trkpt>
      <trkpt lat="41.9390510" lon="-4.4190390">
        <ele>757.3</ele>
        <time>2018-08-23T17:32:50Z</time>
      </trkpt>
      <trkpt lat="41.9390130" lon="-4.4190020">
        <ele>757.5</ele>
        <time>2018-08-23T17:32:51Z</time>
      </trkpt>
      <trkpt lat="41.9389770" lon="-4.4189640">
        <ele>757.7</ele>
        <time>2018-08-23T17:32:52Z</time>
      </trkpt>
      <trkpt lat="41.9389390" lon="-4.4189240">
        <ele>757.9</ele>
        <time>2018-08-23T17:32:53Z</time>
      </trkpt>
      <trkpt lat="41.9389020" lon="-4.4188940">
        <ele>758.1</ele>
        <time>2018-08-23T17:32:54Z</time>
      </trkpt>
      <trkpt lat="41.9388650" lon="-4.4188610">
        <ele>758.3</ele>
        <time>2018-08-23T17:32:55Z</time>
      </trkpt>
      <trkpt lat="41.9388280" lon="-4.4188220">
        <ele>758.5</ele>
        <time>2018-08-23T17:32:56Z</time>
      </trkpt>
      <trkpt lat="41.9387920" lon="-4.4187860">
        <ele>758.7</ele>
        <time>2018-08-23T17:32:57Z</time>
      </trkpt>
      <trkpt lat="41.9387540" lon="-4.4187500">
        <ele>758.9</ele>
        <time>2018-08-23T17:32:58Z</time>
      </trkpt>
      <trkpt lat="41.9387150" lon="-4.4187130">
        <ele>759.1</ele>
        <time>2018-08-23T17:32:59Z</time>
      </trkpt>
      <trkpt lat="41.9386770" lon="-4.4186740">
        <ele>759.3</ele>
        <time>2018-08-23T17:33:00Z</time>
      </trkpt>
      <trkpt lat="41.9386400" lon="-4.4186370">
        <ele>759.6</ele>
        <time>2018-08-23T17:33:01Z</time>
      </trkpt>
      <trkpt lat="41.9385980" lon="-4.4186050">
        <ele>759.8</ele>
        <time>2018-08-23T17:33:02Z</time>
      </trkpt>
      <trkpt lat="41.9385570" lon="-4.4185700">
        <ele>760.0</ele>
        <time>2018-08-23T17:33:03Z</time>
      </trkpt>
      <trkpt lat="41.9385190" lon="-4.4185340">
        <ele>760.2</ele>
        <time>2018-08-23T17:33:04Z</time>
      </trkpt>
      <trkpt lat="41.9384820" lon="-4.4184970">
        <ele>760.4</ele>
        <time>2018-08-23T17:33:05Z</time>
      </trkpt>
      <trkpt lat="41.9384470" lon="-4.4184600">
        <ele>760.6</ele>
        <time>2018-08-23T17:33:06Z</time>
      </trkpt>
      <trkpt lat="41.9384070" lon="-4.4184220">
        <ele>760.8</ele>
        <time>2018-08-23T17:33:07Z</time>
      </trkpt>
      <trkpt lat="41.9383640" lon="-4.4183930">
        <ele>761.0</ele>
        <time>2018-08-23T17:33:08Z</time>
      </trkpt>
      <trkpt lat="41.9383260" lon="-4.4183590">
        <ele>761.3</ele>
        <time>2018-08-23T17:33:09Z</time>
      </trkpt>
      <trkpt lat="41.9382930" lon="-4.4183250">
        <ele>761.4</ele>
        <time>2018-08-23T17:33:10Z</time>
      </trkpt>
      <trkpt lat="41.9382530" lon="-4.4182920">
        <ele>761.7</ele>
        <time>2018-08-23T17:33:11Z</time>
      </trkpt>
      <trkpt lat="41.9382130" lon="-4.4182620">
        <ele>761.9</ele>
        <time>2018-08-23T17:33:12Z</time>
      </trkpt>
      <trkpt lat="41.9381760" lon="-4.4182310">
        <ele>762.1</ele>
        <time>2018-08-23T17:33:13Z</time>
      </trkpt>
      <trkpt lat="41.9381400" lon="-4.4181930">
        <ele>762.3</ele>
        <time>2018-08-23T17:33:14Z</time>
      </trkpt>
      <trkpt lat="41.9381040" lon="-4.4181510">
        <ele>762.5</ele>
        <time>2018-08-23T17:33:15Z</time>
      </trkpt>
      <trkpt lat="41.9380670" lon="-4.4181180">
        <ele>762.7</ele>
        <time>2018-08-23T17:33:16Z</time>
      </trkpt>
      <trkpt lat="41.9380310" lon="-4.4180870">
        <ele>762.9</ele>
        <time>2018-08-23T17:33:17Z</time>
      </trkpt>
      <trkpt lat="41.9379910" lon="-4.4180520">
        <ele>763.2</ele>
        <time>2018-08-23T17:33:18Z</time>
      </trkpt>
      <trkpt lat="41.9379510" lon="-4.4180160">
        <ele>763.4</ele>
        <time>2018-08-23T17:33:19Z</time>
      </trkpt>
      <trkpt lat="41.9379170" lon="-4.4179840">
        <ele>763.6</ele>
        <time>2018-08-23T17:33:20Z</time>
      </trkpt>
      <trkpt lat="41.9378850" lon="-4.4179480">
        <ele>763.8</ele>
        <time>2018-08-23T17:33:21Z</time>
      </trkpt>
      <trkpt lat="41.9378490" lon="-4.4179120">
        <ele>764.0</ele>
        <time>2018-08-23T17:33:22Z</time>
      </trkpt>
      <trkpt lat="41.9378120" lon="-4.4178750">
        <ele>764.2</ele>
        <time>2018-08-23T17:33:23Z</time>
      </trkpt>
      <trkpt lat="41.9377750" lon="-4.4178390">
        <ele>764.4</ele>
        <time>2018-08-23T17:33:24Z</time>
      </trkpt>
      <trkpt lat="41.9377400" lon="-4.4178040">
        <ele>764.6</ele>
        <time>2018-08-23T17:33:25Z</time>
      </trkpt>
      <trkpt lat="41.9377170" lon="-4.4177770">
        <ele>764.8</ele>
        <time>2018-08-23T17:33:26Z</time>
      </trkpt>
      <trkpt lat="41.9376900" lon="-4.4177510">
        <ele>764.9</ele>
        <time>2018-08-23T17:33:27Z</time>
      </trkpt>
      <trkpt lat="41.9376570" lon="-4.4177200">
        <ele>765.1</ele>
        <time>2018-08-23T17:33:28Z</time>
      </trkpt>
      <trkpt lat="41.9376180" lon="-4.4176930">
        <ele>765.3</ele>
        <time>2018-08-23T17:33:29Z</time>
      </trkpt>
      <trkpt lat="41.9375840" lon="-4.4176680">
        <ele>765.5</ele>
        <time>2018-08-23T17:33:30Z</time>
      </trkpt>
      <trkpt lat="41.9375490" lon="-4.4176390">
        <ele>765.8</ele>
        <time>2018-08-23T17:33:31Z</time>
      </trkpt>
      <trkpt lat="41.9375170" lon="-4.4176080">
        <ele>766.0</ele>
        <time>2018-08-23T17:33:32Z</time>
      </trkpt>
      <trkpt lat="41.9374820" lon="-4.4175750">
        <ele>766.3</ele>
        <time>2018-08-23T17:33:33Z</time>
      </trkpt>
      <trkpt lat="41.9374500" lon="-4.4175420">
        <ele>766.4</ele>
        <time>2018-08-23T17:33:34Z</time>
      </trkpt>
      <trkpt lat="41.9374160" lon="-4.4175100">
        <ele>766.6</ele>
        <time>2018-08-23T17:33:35Z</time>
      </trkpt>
      <trkpt lat="41.9373820" lon="-4.4174790">
        <ele>766.8</ele>
        <time>2018-08-23T17:33:36Z</time>
      </trkpt>
      <trkpt lat="41.9373460" lon="-4.4174470">
        <ele>767.0</ele>
        <time>2018-08-23T17:33:37Z</time>
      </trkpt>
      <trkpt lat="41.9373160" lon="-4.4174170">
        <ele>767.2</ele>
        <time>2018-08-23T17:33:38Z</time>
      </trkpt>
      <trkpt lat="41.9372830" lon="-4.4173820">
        <ele>767.4</ele>
        <time>2018-08-23T17:33:39Z</time>
      </trkpt>
      <trkpt lat="41.9372490" lon="-4.4173500">
        <ele>767.5</ele>
        <time>2018-08-23T17:33:40Z</time>
      </trkpt>
      <trkpt lat="41.9372130" lon="-4.4173190">
        <ele>767.7</ele>
        <time>2018-08-23T17:33:41Z</time>
      </trkpt>
      <trkpt lat="41.9371780" lon="-4.4172870">
        <ele>767.9</ele>
        <time>2018-08-23T17:33:42Z</time>
      </trkpt>
      <trkpt lat="41.9371440" lon="-4.4172500">
        <ele>768.1</ele>
        <time>2018-08-23T17:33:43Z</time>
      </trkpt>
      <trkpt lat="41.9371100" lon="-4.4172140">
        <ele>768.3</ele>
        <time>2018-08-23T17:33:44Z</time>
      </trkpt>
      <trkpt lat="41.9370800" lon="-4.4171820">
        <ele>768.5</ele>
        <time>2018-08-23T17:33:45Z</time>
      </trkpt>
      <trkpt lat="41.9294070" lon="-4.3790380">
        <ele>819.6</ele>
        <time>2018-08-23T17:46:45Z</time>
      </trkpt>
      <trkpt lat="41.9293520" lon="-4.3790060">
        <ele>816.3</ele>
        <time>2018-08-23T17:46:46Z</time>
      </trkpt>
      <trkpt lat="41.9293200" lon="-4.3789830">
        <ele>816.5</ele>
        <time>2018-08-23T17:46:47Z</time>
      </trkpt>
      <trkpt lat="41.9292310" lon="-4.3789230">
        <ele>817.1</ele>
        <time>2018-08-23T17:46:48Z</time>
      </trkpt>
      <trkpt lat="41.9291710" lon="-4.3788820">
        <ele>817.5</ele>
        <time>2018-08-23T17:46:49Z</time>
      </trkpt>
      <trkpt lat="41.9291210" lon="-4.3788430">
        <ele>817.8</ele>
        <time>2018-08-23T17:46:52Z</time>
      </trkpt>
      <trkpt lat="41.9290800" lon="-4.3788150">
        <ele>818.0</ele>
        <time>2018-08-23T17:46:53Z</time>
      </trkpt>
      <trkpt lat="41.9290450" lon="-4.3787910">
        <ele>818.3</ele>
        <time>2018-08-23T17:46:54Z</time>
      </trkpt>
      <trkpt lat="41.9290110" lon="-4.3787560">
        <ele>818.5</ele>
        <time>2018-08-23T17:46:55Z</time>
      </trkpt>
      <trkpt lat="41.9289730" lon="-4.3787240">
        <ele>818.7</ele>
        <time>2018-08-23T17:46:56Z</time>
      </trkpt>
      <trkpt lat="41.9289350" lon="-4.3786930">
        <ele>819.0</ele>
        <time>2018-08-23T17:46:57Z</time>
      </trkpt>
      <trkpt lat="41.9288940" lon="-4.3786690">
        <ele>819.2</ele>
        <time>2018-08-23T17:46:58Z</time>
      </trkpt>
      <trkpt lat="41.9288530" lon="-4.3786450">
        <ele>819.5</ele>
        <time>2018-08-23T17:46:59Z</time>
      </trkpt>
      <trkpt lat="41.9288160" lon="-4.3786220">
        <ele>819.7</ele>
        <time>2018-08-23T17:47:00Z</time>
      </trkpt>
      <trkpt lat="41.9287830" lon="-4.3786020">
        <ele>819.9</ele>
        <time>2018-08-23T17:47:01Z</time>
      </trkpt>
      <trkpt lat="41.9287520" lon="-4.3785780">
        <ele>820.2</ele>
        <time>2018-08-23T17:47:02Z</time>
      </trkpt>
      <trkpt lat="41.9287150" lon="-4.3785440">
        <ele>820.5</ele>
        <time>2018-08-23T17:47:03Z</time>
      </trkpt>
      <trkpt lat="41.9286790" lon="-4.3785050">
        <ele>820.8</ele>
        <time>2018-08-23T17:47:04Z</time>
      </trkpt>
      <trkpt lat="41.9286440" lon="-4.3784690">
        <ele>821.0</ele>
        <time>2018-08-23T17:47:05Z</time>
      </trkpt>
      <trkpt lat="41.9286070" lon="-4.3784310">
        <ele>821.3</ele>
        <time>2018-08-23T17:47:06Z</time>
      </trkpt>
      <trkpt lat="41.9285720" lon="-4.3783930">
        <ele>821.6</ele>
        <time>2018-08-23T17:47:07Z</time>
      </trkpt>
      <trkpt lat="41.8837770" lon="-4.3778820">
        <ele>876.2</ele>
        <time>2018-08-23T18:08:05Z</time>
      </trkpt>
      <trkpt lat="41.8840540" lon="-4.3779630">
        <ele>874.0</ele>
        <time>2018-08-23T18:08:07Z</time>
      </trkpt>
      <trkpt lat="41.8840200" lon="-4.3779800">
        <ele>874.0</ele>
        <time>2018-08-23T18:08:09Z</time>
      </trkpt>
      <trkpt lat="41.8840500" lon="-4.3780080">
        <ele>874.1</ele>
        <time>2018-08-23T18:08:10Z</time>
      </trkpt>
      <trkpt lat="41.8840730" lon="-4.3780370">
        <ele>874.1</ele>
        <time>2018-08-23T18:08:11Z</time>
      </trkpt>
      <trkpt lat="41.8840960" lon="-4.3780660">
        <ele>874.1</ele>
        <time>2018-08-23T18:08:12Z</time>
      </trkpt>
      <trkpt lat="41.8841180" lon="-4.3780920">
        <ele>874.1</ele>
        <time>2018-08-23T18:08:13Z</time>
      </trkpt>
      <trkpt lat="41.8841370" lon="-4.3781180">
        <ele>874.1</ele>
        <time>2018-08-23T18:08:14Z</time>
      </trkpt>
      <trkpt lat="41.8841600" lon="-4.3781450">
        <ele>874.2</ele>
        <time>2018-08-23T18:08:15Z</time>
      </trkpt>
      <trkpt lat="41.8841830" lon="-4.3781730">
        <ele>874.2</ele>
        <time>2018-08-23T18:08:16Z</time>
      </trkpt>
      <trkpt lat="41.8842060" lon="-4.3781960">
        <ele>874.2</ele>
        <time>2018-08-23T18:08:17Z</time>
      </trkpt>
      <trkpt lat="41.8842280" lon="-4.3782180">
        <ele>874.2</ele>
        <time>2018-08-23T18:08:18Z</time>
      </trkpt>
      <trkpt lat="41.8842490" lon="-4.3782430">
        <ele>874.2</ele>
        <time>2018-08-23T18:08:19Z</time>
      </trkpt>
      <trkpt lat="41.8842930" lon="-4.3782850">
        <ele>874.3</ele>
        <time>2018-08-23T18:08:21Z</time>
      </trkpt>
      <trkpt lat="41.8843280" lon="-4.3783320">
        <ele>874.3</ele>
        <time>2018-08-23T18:08:23Z</time>
      </trkpt>
      <trkpt lat="41.8843660" lon="-4.3783710">
        <ele>874.3</ele>
        <time>2018-08-23T18:08:25Z</time>
      </trkpt>
      <trkpt lat="41.8844030" lon="-4.3784120">
        <ele>874.4</ele>
        <time>2018-08-23T18:08:27Z</time>
      </trkpt>
      <trkpt lat="41.8844480" lon="-4.3784580">
        <ele>874.4</ele>
        <time>2018-08-23T18:08:29Z</time>
      </trkpt>
      <trkpt lat="41.8844710" lon="-4.3784830">
        <ele>874.5</ele>
        <time>2018-08-23T18:08:30Z</time>
      </trkpt>
      <trkpt lat="41.8844940" lon="-4.3785100">
        <ele>874.5</ele>
        <time>2018-08-23T18:08:31Z</time>
      </trkpt>
      <trkpt lat="41.8845160" lon="-4.3785390">
        <ele>874.5</ele>
        <time>2018-08-23T18:08:32Z</time>
      </trkpt>
      <trkpt lat="41.8845370" lon="-4.3785680">
        <ele>874.6</ele>
        <time>2018-08-23T18:08:33Z</time>
      </trkpt>
      <trkpt lat="41.8845580" lon="-4.3785950">
        <ele>874.6</ele>
        <time>2018-08-23T18:08:34Z</time>
      </trkpt>
      <trkpt lat="41.8845820" lon="-4.3786180">
        <ele>874.6</ele>
        <time>2018-08-23T18:08:35Z</time>
      </trkpt>
      <trkpt lat="41.8846060" lon="-4.3786460">
        <ele>874.7</ele>
        <time>2018-08-23T18:08:36Z</time>
      </trkpt>
      <trkpt lat="41.8846310" lon="-4.3786750">
        <ele>874.7</ele>
        <time>2018-08-23T18:08:37Z</time>
      </trkpt>
      <trkpt lat="41.8846540" lon="-4.3787060">
        <ele>874.8</ele>
        <time>2018-08-23T18:08:38Z</time>
      </trkpt>
      <trkpt lat="41.8846800" lon="-4.3787350">
        <ele>874.8</ele>
        <time>2018-08-23T18:08:39Z</time>
      </trkpt>
      <trkpt lat="41.8847070" lon="-4.3787620">
        <ele>874.8</ele>
        <time>2018-08-23T18:08:40Z</time>
      </trkpt>
      <trkpt lat="41.8847310" lon="-4.3787930">
        <ele>874.9</ele>
        <time>2018-08-23T18:08:41Z</time>
      </trkpt>
      <trkpt lat="41.8848000" lon="-4.3788730">
        <ele>874.9</ele>
        <time>2018-08-23T18:08:44Z</time>
      </trkpt>
      <trkpt lat="41.8848260" lon="-4.3789020">
        <ele>875.0</ele>
        <time>2018-08-23T18:08:45Z</time>
      </trkpt>
      <trkpt lat="41.8848500" lon="-4.3789330">
        <ele>875.0</ele>
        <time>2018-08-23T18:08:46Z</time>
      </trkpt>
      <trkpt lat="41.8848750" lon="-4.3789640">
        <ele>875.0</ele>
        <time>2018-08-23T18:08:47Z</time>
      </trkpt>
      <trkpt lat="41.8848950" lon="-4.3789930">
        <ele>875.1</ele>
        <time>2018-08-23T18:08:48Z</time>
      </trkpt>
      <trkpt lat="41.8849160" lon="-4.3790250">
        <ele>875.1</ele>
        <time>2018-08-23T18:08:49Z</time>
      </trkpt>
      <trkpt lat="41.8849410" lon="-4.3790540">
        <ele>875.1</ele>
        <time>2018-08-23T18:08:50Z</time>
      </trkpt>
      <trkpt lat="41.8849660" lon="-4.3790830">
        <ele>875.2</ele>
        <time>2018-08-23T18:08:51Z</time>
      </trkpt>
      <trkpt lat="41.8849920" lon="-4.3791110">
        <ele>875.2</ele>
        <time>2018-08-23T18:08:52Z</time>
      </trkpt>
      <trkpt lat="41.8850170" lon="-4.3791380">
        <ele>875.2</ele>
        <time>2018-08-23T18:08:53Z</time>
      </trkpt>
      <trkpt lat="41.8850410" lon="-4.3791670">
        <ele>875.2</ele>
        <time>2018-08-23T18:08:54Z</time>
      </trkpt>
      <trkpt lat="41.8850670" lon="-4.3791980">
        <ele>875.2</ele>
        <time>2018-08-23T18:08:55Z</time>
      </trkpt>
      <trkpt lat="41.8850940" lon="-4.3792290">
        <ele>875.3</ele>
        <time>2018-08-23T18:08:56Z</time>
      </trkpt>
      <trkpt lat="41.8851200" lon="-4.3792610">
        <ele>875.3</ele>
        <time>2018-08-23T18:08:57Z</time>
      </trkpt>
      <trkpt lat="41.8851490" lon="-4.3792850">
        <ele>875.3</ele>
        <time>2018-08-23T18:08:58Z</time>
      </trkpt>
      <trkpt lat="41.8851780" lon="-4.3793130">
        <ele>875.3</ele>
        <time>2018-08-23T18:08:59Z</time>
      </trkpt>
      <trkpt lat="41.8852040" lon="-4.3793380">
        <ele>875.3</ele>
        <time>2018-08-23T18:09:00Z</time>
      </trkpt>
      <trkpt lat="41.8852280" lon="-4.3793670">
        <ele>875.4</ele>
        <time>2018-08-23T18:09:01Z</time>
      </trkpt>
      <trkpt lat="41.8852520" lon="-4.3793950">
        <ele>875.4</ele>
        <time>2018-08-23T18:09:02Z</time>
      </trkpt>
      <trkpt lat="41.8852750" lon="-4.3794230">
        <ele>875.4</ele>
        <time>2018-08-23T18:09:03Z</time>
      </trkpt>
      <trkpt lat="41.8853010" lon="-4.3794510">
        <ele>875.4</ele>
        <time>2018-08-23T18:09:04Z</time>
      </trkpt>
      <trkpt lat="41.8853250" lon="-4.3794830">
        <ele>875.4</ele>
        <time>2018-08-23T18:09:05Z</time>
      </trkpt>
      <trkpt lat="41.8853510" lon="-4.3795110">
        <ele>875.5</ele>
        <time>2018-08-23T18:09:06Z</time>
      </trkpt>
      <trkpt lat="41.8853730" lon="-4.3795450">
        <ele>875.5</ele>
        <time>2018-08-23T18:09:07Z</time>
      </trkpt>
      <trkpt lat="41.8853970" lon="-4.3795730">
        <ele>875.5</ele>
        <time>2018-08-23T18:09:08Z</time>
      </trkpt>
      <trkpt lat="41.8854210" lon="-4.3795990">
        <ele>875.5</ele>
        <time>2018-08-23T18:09:09Z</time>
      </trkpt>
      <trkpt lat="41.8854450" lon="-4.3796240">
        <ele>875.5</ele>
        <time>2018-08-23T18:09:10Z</time>
      </trkpt>
      <trkpt lat="41.8854710" lon="-4.3796490">
        <ele>875.5</ele>
        <time>2018-08-23T18:09:11Z</time>
      </trkpt>
      <trkpt lat="41.8854970" lon="-4.3796780">
        <ele>875.6</ele>
        <time>2018-08-23T18:09:12Z</time>
      </trkpt>
      <trkpt lat="41.8855220" lon="-4.3797090">
        <ele>875.6</ele>
        <time>2018-08-23T18:09:13Z</time>
      </trkpt>
      <trkpt lat="41.8855490" lon="-4.3797390">
        <ele>875.7</ele>
        <time>2018-08-23T18:09:14Z</time>
      </trkpt>
      <trkpt lat="41.8855740" lon="-4.3797710">
        <ele>875.7</ele>
        <time>2018-08-23T18:09:15Z</time>
      </trkpt>
      <trkpt lat="41.8856030" lon="-4.3798000">
        <ele>875.8</ele>
        <time>2018-08-23T18:09:16Z</time>
      </trkpt>
      <trkpt lat="41.8856860" lon="-4.3799030">
        <ele>875.9</ele>
        <time>2018-08-23T18:09:19Z</time>
      </trkpt>
      <trkpt lat="41.8857190" lon="-4.3799420">
        <ele>875.9</ele>
        <time>2018-08-23T18:09:20Z</time>
      </trkpt>
      <trkpt lat="41.8857820" lon="-4.3800160">
        <ele>876.0</ele>
        <time>2018-08-23T18:09:22Z</time>
      </trkpt>
      <trkpt lat="41.8858150" lon="-4.3800580">
        <ele>876.1</ele>
        <time>2018-08-23T18:09:23Z</time>
      </trkpt>
      <trkpt lat="41.8858520" lon="-4.3801000">
        <ele>876.1</ele>
        <time>2018-08-23T18:09:24Z</time>
      </trkpt>
      <trkpt lat="41.8858870" lon="-4.3801440">
        <ele>876.2</ele>
        <time>2018-08-23T18:09:25Z</time>
      </trkpt>
      <trkpt lat="41.8859180" lon="-4.3801860">
        <ele>876.2</ele>
        <time>2018-08-23T18:09:26Z</time>
      </trkpt>
      <trkpt lat="41.8859500" lon="-4.3802210">
        <ele>876.3</ele>
        <time>2018-08-23T18:09:27Z</time>
      </trkpt>
      <trkpt lat="41.8859800" lon="-4.3802540">
        <ele>876.3</ele>
        <time>2018-08-23T18:09:28Z</time>
      </trkpt>
      <trkpt lat="41.8860090" lon="-4.3802870">
        <ele>876.4</ele>
        <time>2018-08-23T18:09:29Z</time>
      </trkpt>
      <trkpt lat="41.8860390" lon="-4.3803220">
        <ele>876.4</ele>
        <time>2018-08-23T18:09:30Z</time>
      </trkpt>
      <trkpt lat="41.8860690" lon="-4.3803560">
        <ele>876.4</ele>
        <time>2018-08-23T18:09:31Z</time>
      </trkpt>
      <trkpt lat="41.8860990" lon="-4.3803890">
        <ele>876.5</ele>
        <time>2018-08-23T18:09:32Z</time>
      </trkpt>
      <trkpt lat="41.8861320" lon="-4.3804160">
        <ele>876.5</ele>
        <time>2018-08-23T18:09:33Z</time>
      </trkpt>
      <trkpt lat="41.9243300" lon="-4.4916610">
        <ele>721.4</ele>
        <time>2018-08-23T18:30:03Z</time>
      </trkpt>
      <trkpt lat="41.9242750" lon="-4.4916850">
        <ele>721.2</ele>
        <time>2018-08-23T18:30:04Z</time>
      </trkpt>
      <trkpt lat="41.9239540" lon="-4.4919500">
        <ele>720.2</ele>
        <time>2018-08-23T18:30:14Z</time>
      </trkpt>
      <trkpt lat="41.9239070" lon="-4.4919620">
        <ele>720.0</ele>
        <time>2018-08-23T18:30:15Z</time>
      </trkpt>
      <trkpt lat="41.9238620" lon="-4.4921200">
        <ele>719.6</ele>
        <time>2018-08-23T18:30:18Z</time>
      </trkpt>
      <trkpt lat="41.9239540" lon="-4.4922480">
        <ele>719.4</ele>
        <time>2018-08-23T18:30:19Z</time>
      </trkpt>
      <trkpt lat="41.9240140" lon="-4.4923120">
        <ele>719.2</ele>
        <time>2018-08-23T18:30:20Z</time>
      </trkpt>
      <trkpt lat="41.9240200" lon="-4.4923500">
        <ele>719.0</ele>
        <time>2018-08-23T18:30:25Z</time>
      </trkpt>
      <trkpt lat="41.9264750" lon="-4.4926630">
        <ele>719.9</ele>
        <time>2018-08-23T18:31:12Z</time>
      </trkpt>
      <trkpt lat="41.9265370" lon="-4.4927280">
        <ele>719.8</ele>
        <time>2018-08-23T18:31:14Z</time>
      </trkpt>
      <trkpt lat="41.9265800" lon="-4.4927920">
        <ele>719.8</ele>
        <time>2018-08-23T18:31:15Z</time>
      </trkpt>
      <trkpt lat="41.9266510" lon="-4.4928170">
        <ele>719.8</ele>
        <time>2018-08-23T18:31:16Z</time>
      </trkpt>
      <trkpt lat="41.9266950" lon="-4.4928300">
        <ele>719.8</ele>
        <time>2018-08-23T18:31:17Z</time>
      </trkpt>
      <trkpt lat="41.9267660" lon="-4.4928610">
        <ele>719.7</ele>
        <time>2018-08-23T18:31:18Z</time>
      </trkpt>
      <trkpt lat="41.9268310" lon="-4.4928880">
        <ele>719.7</ele>
        <time>2018-08-23T18:31:19Z</time>
      </trkpt>
      <trkpt lat="41.9270240" lon="-4.4929660">
        <ele>719.6</ele>
        <time>2018-08-23T18:31:22Z</time>
      </trkpt>
      <trkpt lat="41.9270940" lon="-4.4929880">
        <ele>719.6</ele>
        <time>2018-08-23T18:31:23Z</time>
      </trkpt>
      <trkpt lat="41.9271640" lon="-4.4930030">
        <ele>719.4</ele>
        <time>2018-08-23T18:31:24Z</time>
      </trkpt>
      <trkpt lat="41.9272340" lon="-4.4930290">
        <ele>719.3</ele>
        <time>2018-08-23T18:31:25Z</time>
      </trkpt>
      <trkpt lat="41.9273030" lon="-4.4930590">
        <ele>719.2</ele>
        <time>2018-08-23T18:31:26Z</time>
      </trkpt>
      <trkpt lat="41.9273710" lon="-4.4930900">
        <ele>719.3</ele>
        <time>2018-08-23T18:31:27Z</time>
      </trkpt>
      <trkpt lat="41.9274370" lon="-4.4931190">
        <ele>719.4</ele>
        <time>2018-08-23T18:31:28Z</time>
      </trkpt>
      <trkpt lat="41.9275040" lon="-4.4931480">
        <ele>719.6</ele>
        <time>2018-08-23T18:31:29Z</time>
      </trkpt>
      <trkpt lat="41.9275730" lon="-4.4931720">
        <ele>719.9</ele>
        <time>2018-08-23T18:31:30Z</time>
      </trkpt>
      <trkpt lat="41.9276460" lon="-4.4931920">
        <ele>720.1</ele>
        <time>2018-08-23T18:31:31Z</time>
      </trkpt>
      <trkpt lat="41.9277160" lon="-4.4932160">
        <ele>720.2</ele>
        <time>2018-08-23T18:31:32Z</time>
      </trkpt>
      <trkpt lat="41.9455140" lon="-4.5038630">
        <ele>721.0</ele>
        <time>2018-08-23T18:36:20Z</time>
      </trkpt>
      <trkpt lat="41.9453990" lon="-4.5037990">
        <ele>720.8</ele>
        <time>2018-08-23T18:36:21Z</time>
      </trkpt>
      <trkpt lat="41.9454890" lon="-4.5038260">
        <ele>720.7</ele>
        <time>2018-08-23T18:36:22Z</time>
      </trkpt>
      <trkpt lat="41.9455250" lon="-4.5038040">
        <ele>720.7</ele>
        <time>2018-08-23T18:36:23Z</time>
      </trkpt>
      <trkpt lat="41.9455600" lon="-4.5038170">
        <ele>720.7</ele>
        <time>2018-08-23T18:36:24Z</time>
      </trkpt>
      <trkpt lat="41.9456170" lon="-4.5038210">
        <ele>720.8</ele>
        <time>2018-08-23T18:36:25Z</time>
      </trkpt>
      <trkpt lat="41.9456890" lon="-4.5038270">
        <ele>721.0</ele>
        <time>2018-08-23T18:36:26Z</time>
      </trkpt>
      <trkpt lat="41.9457550" lon="-4.5038380">
        <ele>721.2</ele>
        <time>2018-08-23T18:36:27Z</time>
      </trkpt>
      <trkpt lat="41.9458170" lon="-4.5038450">
        <ele>721.3</ele>
        <time>2018-08-23T18:36:28Z</time>
      </trkpt>
      <trkpt lat="41.9458760" lon="-4.5038450">
        <ele>721.3</ele>
        <time>2018-08-23T18:36:29Z</time>
      </trkpt>
      <trkpt lat="41.9459380" lon="-4.5038460">
        <ele>721.3</ele>
        <time>2018-08-23T18:36:30Z</time>
      </trkpt>
      <trkpt lat="41.9459960" lon="-4.5038450">
        <ele>721.3</ele>
        <time>2018-08-23T18:36:31Z</time>
      </trkpt>
      <trkpt lat="41.9460570" lon="-4.5038440">
        <ele>721.3</ele>
        <time>2018-08-23T18:36:32Z</time>
      </trkpt>
      <trkpt lat="41.9461200" lon="-4.5038430">
        <ele>721.3</ele>
        <time>2018-08-23T18:36:33Z</time>
      </trkpt>
      <trkpt lat="41.9461840" lon="-4.5038410">
        <ele>721.2</ele>
        <time>2018-08-23T18:36:34Z</time>
      </trkpt>
      <trkpt lat="41.9462500" lon="-4.5038370">
        <ele>721.2</ele>
        <time>2018-08-23T18:36:35Z</time>
      </trkpt>
      <trkpt lat="41.9463170" lon="-4.5038300">
        <ele>721.2</ele>
        <time>2018-08-23T18:36:36Z</time>
      </trkpt>
      <trkpt lat="41.9463850" lon="-4.5038210">
        <ele>721.1</ele>
        <time>2018-08-23T18:36:37Z</time>
      </trkpt>
      <trkpt lat="41.9464540" lon="-4.5038080">
        <ele>721.1</ele>
        <time>2018-08-23T18:36:38Z</time>
      </trkpt>
      <trkpt lat="41.9465210" lon="-4.5038010">
        <ele>721.0</ele>
        <time>2018-08-23T18:36:39Z</time>
      </trkpt>
      <trkpt lat="41.9465870" lon="-4.5037900">
        <ele>721.0</ele>
        <time>2018-08-23T18:36:40Z</time>
      </trkpt>
      <trkpt lat="41.9466510" lon="-4.5037790">
        <ele>720.9</ele>
        <time>2018-08-23T18:36:41Z</time>
      </trkpt>
      <trkpt lat="41.9467160" lon="-4.5037670">
        <ele>720.8</ele>
        <time>2018-08-23T18:36:42Z</time>
      </trkpt>
      <trkpt lat="41.9467810" lon="-4.5037550">
        <ele>720.8</ele>
        <time>2018-08-23T18:36:43Z</time>
      </trkpt>
      <trkpt lat="41.9468450" lon="-4.5037390">
        <ele>720.8</ele>
        <time>2018-08-23T18:36:44Z</time>
      </trkpt>
      <trkpt lat="41.9469100" lon="-4.5037230">
        <ele>720.7</ele>
        <time>2018-08-23T18:36:45Z</time>
      </trkpt>
      <trkpt lat="41.9469740" lon="-4.5037050">
        <ele>720.7</ele>
        <time>2018-08-23T18:36:46Z</time>
      </trkpt>
      <trkpt lat="41.9470390" lon="-4.5036870">
        <ele>720.6</ele>
        <time>2018-08-23T18:36:47Z</time>
      </trkpt>
      <trkpt lat="41.9471040" lon="-4.5036700">
        <ele>720.6</ele>
        <time>2018-08-23T18:36:48Z</time>
      </trkpt>
      <trkpt lat="41.9471690" lon="-4.5036550">
        <ele>720.6</ele>
        <time>2018-08-23T18:36:49Z</time>
      </trkpt>
      <trkpt lat="41.9472330" lon="-4.5036360">
        <ele>720.5</ele>
        <time>2018-08-23T18:36:50Z</time>
      </trkpt>
      <trkpt lat="41.9472940" lon="-4.5036160">
        <ele>720.5</ele>
        <time>2018-08-23T18:36:51Z</time>
      </trkpt>
      <trkpt lat="41.9473520" lon="-4.5035980">
        <ele>720.5</ele>
        <time>2018-08-23T18:36:52Z</time>
      </trkpt>
      <trkpt lat="41.9474120" lon="-4.5035760">
        <ele>720.4</ele>
        <time>2018-08-23T18:36:53Z</time>
      </trkpt>
      <trkpt lat="41.9474740" lon="-4.5035550">
        <ele>720.4</ele>
        <time>2018-08-23T18:36:54Z</time>
      </trkpt>
      <trkpt lat="41.9475380" lon="-4.5035310">
        <ele>720.3</ele>
        <time>2018-08-23T18:36:55Z</time>
      </trkpt>
      <trkpt lat="41.9476030" lon="-4.5035060">
        <ele>720.3</ele>
        <time>2018-08-23T18:36:56Z</time>
      </trkpt>
      <trkpt lat="41.9476670" lon="-4.5034810">
        <ele>720.2</ele>
        <time>2018-08-23T18:36:57Z</time>
      </trkpt>
      <trkpt lat="41.9477300" lon="-4.5034560">
        <ele>720.2</ele>
        <time>2018-08-23T18:36:58Z</time>
      </trkpt>
      <trkpt lat="41.9477930" lon="-4.5034290">
        <ele>720.1</ele>
        <time>2018-08-23T18:36:59Z</time>
      </trkpt>
      <trkpt lat="41.9478540" lon="-4.5033990">
        <ele>720.1</ele>
        <time>2018-08-23T18:37:00Z</time>
      </trkpt>
      <trkpt lat="41.9479160" lon="-4.5033740">
        <ele>720.0</ele>
        <time>2018-08-23T18:37:01Z</time>
      </trkpt>
      <trkpt lat="41.9479770" lon="-4.5033470">
        <ele>720.0</ele>
        <time>2018-08-23T18:37:02Z</time>
      </trkpt>
      <trkpt lat="41.9480380" lon="-4.5033220">
        <ele>720.0</ele>
        <time>2018-08-23T18:37:03Z</time>
      </trkpt>
      <trkpt lat="41.9480980" lon="-4.5032910">
        <ele>719.9</ele>
        <time>2018-08-23T18:37:04Z</time>
      </trkpt>
      <trkpt lat="41.9481590" lon="-4.5032630">
        <ele>719.8</ele>
        <time>2018-08-23T18:37:05Z</time>
      </trkpt>
      <trkpt lat="41.9482200" lon="-4.5032370">
        <ele>719.8</ele>
        <time>2018-08-23T18:37:06Z</time>
      </trkpt>
      <trkpt lat="41.9482820" lon="-4.5032100">
        <ele>719.8</ele>
        <time>2018-08-23T18:37:07Z</time>
      </trkpt>
      <trkpt lat="41.9483430" lon="-4.5031870">
        <ele>719.8</ele>
        <time>2018-08-23T18:37:08Z</time>
      </trkpt>
      <trkpt lat="41.9484050" lon="-4.5031660">
        <ele>719.8</ele>
        <time>2018-08-23T18:37:09Z</time>
      </trkpt>
      <trkpt lat="41.9484680" lon="-4.5031450">
        <ele>719.8</ele>
        <time>2018-08-23T18:37:10Z</time>
      </trkpt>
      <trkpt lat="41.9485300" lon="-4.5031240">
        <ele>719.8</ele>
        <time>2018-08-23T18:37:11Z</time>
      </trkpt>
      <trkpt lat="41.9485940" lon="-4.5031040">
        <ele>719.8</ele>
        <time>2018-08-23T18:37:12Z</time>
      </trkpt>
      <trkpt lat="41.9486550" lon="-4.5030830">
        <ele>719.9</ele>
        <time>2018-08-23T18:37:13Z</time>
      </trkpt>
      <trkpt lat="41.9487190" lon="-4.5030670">
        <ele>719.9</ele>
        <time>2018-08-23T18:37:14Z</time>
      </trkpt>
      <trkpt lat="41.9487830" lon="-4.5030580">
        <ele>720.1</ele>
        <time>2018-08-23T18:37:15Z</time>
      </trkpt>
      <trkpt lat="41.9488470" lon="-4.5030450">
        <ele>720.3</ele>
        <time>2018-08-23T18:37:16Z</time>
      </trkpt>
      <trkpt lat="41.9489110" lon="-4.5030350">
        <ele>720.4</ele>
        <time>2018-08-23T18:37:17Z</time>
      </trkpt>
      <trkpt lat="41.9489740" lon="-4.5030220">
        <ele>720.5</ele>
        <time>2018-08-23T18:37:18Z</time>
      </trkpt>
      <trkpt lat="41.9490390" lon="-4.5030150">
        <ele>720.5</ele>
        <time>2018-08-23T18:37:19Z</time>
      </trkpt>
      <trkpt lat="41.9491030" lon="-4.5030070">
        <ele>720.5</ele>
        <time>2018-08-23T18:37:20Z</time>
      </trkpt>
      <trkpt lat="41.9491680" lon="-4.5030020">
        <ele>720.5</ele>
        <time>2018-08-23T18:37:21Z</time>
      </trkpt>
      <trkpt lat="41.9492330" lon="-4.5029950">
        <ele>720.5</ele>
        <time>2018-08-23T18:37:22Z</time>
      </trkpt>
      <trkpt lat="41.9492970" lon="-4.5029890">
        <ele>720.5</ele>
        <time>2018-08-23T18:37:23Z</time>
      </trkpt>
      <trkpt lat="41.9493620" lon="-4.5029850">
        <ele>720.5</ele>
        <time>2018-08-23T18:37:24Z</time>
      </trkpt>
      <trkpt lat="41.9494270" lon="-4.5029800">
        <ele>720.4</ele>
        <time>2018-08-23T18:37:25Z</time>
      </trkpt>
      <trkpt lat="41.9494920" lon="-4.5029790">
        <ele>720.4</ele>
        <time>2018-08-23T18:37:26Z</time>
      </trkpt>
      <trkpt lat="41.9495560" lon="-4.5029710">
        <ele>720.4</ele>
        <time>2018-08-23T18:37:27Z</time>
      </trkpt>
      <trkpt lat="41.9496210" lon="-4.5029690">
        <ele>720.4</ele>
        <time>2018-08-23T18:37:28Z</time>
      </trkpt>
      <trkpt lat="41.9496860" lon="-4.5029680">
        <ele>720.4</ele>
        <time>2018-08-23T18:37:29Z</time>
      </trkpt>
      <trkpt lat="41.9497500" lon="-4.5029740">
        <ele>720.3</ele>
        <time>2018-08-23T18:37:30Z</time>
      </trkpt>
      <trkpt lat="41.9498150" lon="-4.5029780">
        <ele>720.3</ele>
        <time>2018-08-23T18:37:31Z</time>
      </trkpt>
      <trkpt lat="41.9498810" lon="-4.5029800">
        <ele>720.3</ele>
        <time>2018-08-23T18:37:32Z</time>
      </trkpt>
      <trkpt lat="41.9499450" lon="-4.5029790">
        <ele>720.3</ele>
        <time>2018-08-23T18:37:33Z</time>
      </trkpt>
      <trkpt lat="41.9500100" lon="-4.5029780">
        <ele>720.2</ele>
        <time>2018-08-23T18:37:34Z</time>
      </trkpt>
      <trkpt lat="41.9500750" lon="-4.5029810">
        <ele>720.2</ele>
        <time>2018-08-23T18:37:35Z</time>
      </trkpt>
      <trkpt lat="41.9501390" lon="-4.5029840">
        <ele>720.1</ele>
        <time>2018-08-23T18:37:36Z</time>
      </trkpt>
      <trkpt lat="41.9502040" lon="-4.5029930">
        <ele>720.1</ele>
        <time>2018-08-23T18:37:37Z</time>
      </trkpt>
      <trkpt lat="41.9502690" lon="-4.5029950">
        <ele>720.1</ele>
        <time>2018-08-23T18:37:38Z</time>
      </trkpt>
      <trkpt lat="41.9503330" lon="-4.5030000">
        <ele>720.0</ele>
        <time>2018-08-23T18:37:39Z</time>
      </trkpt>
      <trkpt lat="41.9503970" lon="-4.5030000">
        <ele>719.9</ele>
        <time>2018-08-23T18:37:40Z</time>
      </trkpt>
      <trkpt lat="41.9504610" lon="-4.5030020">
        <ele>719.8</ele>
        <time>2018-08-23T18:37:41Z</time>
      </trkpt>
      <trkpt lat="41.9505260" lon="-4.5030050">
        <ele>719.8</ele>
        <time>2018-08-23T18:37:42Z</time>
      </trkpt>
      <trkpt lat="41.9505920" lon="-4.5030070">
        <ele>719.7</ele>
        <time>2018-08-23T18:37:43Z</time>
      </trkpt>
      <trkpt lat="41.9506580" lon="-4.5030130">
        <ele>719.7</ele>
        <time>2018-08-23T18:37:44Z</time>
      </trkpt>
      <trkpt lat="41.9507240" lon="-4.5030140">
        <ele>719.6</ele>
        <time>2018-08-23T18:37:45Z</time>
      </trkpt>
      <trkpt lat="41.9507890" lon="-4.5030170">
        <ele>719.6</ele>
        <time>2018-08-23T18:37:46Z</time>
      </trkpt>
      <trkpt lat="41.9508540" lon="-4.5030170">
        <ele>719.5</ele>
        <time>2018-08-23T18:37:47Z</time>
      </trkpt>
      <trkpt lat="41.9509200" lon="-4.5030210">
        <ele>719.5</ele>
        <time>2018-08-23T18:37:48Z</time>
      </trkpt>
      <trkpt lat="41.9509860" lon="-4.5030230">
        <ele>719.4</ele>
        <time>2018-08-23T18:37:49Z</time>
      </trkpt>
      <trkpt lat="41.9510530" lon="-4.5030330">
        <ele>719.4</ele>
        <time>2018-08-23T18:37:50Z</time>
      </trkpt>
      <trkpt lat="41.9511200" lon="-4.5030350">
        <ele>719.3</ele>
        <time>2018-08-23T18:37:51Z</time>
      </trkpt>
      <trkpt lat="41.9511880" lon="-4.5030390">
        <ele>719.3</ele>
        <time>2018-08-23T18:37:52Z</time>
      </trkpt>
      <trkpt lat="41.9512550" lon="-4.5030490">
        <ele>719.2</ele>
        <time>2018-08-23T18:37:53Z</time>
      </trkpt>
      <trkpt lat="41.9513230" lon="-4.5030520">
        <ele>719.2</ele>
        <time>2018-08-23T18:37:54Z</time>
      </trkpt>
      <trkpt lat="41.9513910" lon="-4.5030540">
        <ele>719.1</ele>
        <time>2018-08-23T18:37:55Z</time>
      </trkpt>
      <trkpt lat="41.9514580" lon="-4.5030560">
        <ele>719.1</ele>
        <time>2018-08-23T18:37:56Z</time>
      </trkpt>
      <trkpt lat="41.9515250" lon="-4.5030540">
        <ele>719.1</ele>
        <time>2018-08-23T18:37:57Z</time>
      </trkpt>
      <trkpt lat="41.9515910" lon="-4.5030530">
        <ele>719.0</ele>
        <time>2018-08-23T18:37:58Z</time>
      </trkpt>
      <trkpt lat="41.9516570" lon="-4.5030490">
        <ele>719.0</ele>
        <time>2018-08-23T18:37:59Z</time>
      </trkpt>
      <trkpt lat="41.9517240" lon="-4.5030470">
        <ele>718.9</ele>
        <time>2018-08-23T18:38:00Z</time>
      </trkpt>
      <trkpt lat="41.9517900" lon="-4.5030400">
        <ele>718.9</ele>
        <time>2018-08-23T18:38:01Z</time>
      </trkpt>
      <trkpt lat="41.9518570" lon="-4.5030430">
        <ele>718.9</ele>
        <time>2018-08-23T18:38:02Z</time>
      </trkpt>
      <trkpt lat="41.9519250" lon="-4.5030480">
        <ele>718.8</ele>
        <time>2018-08-23T18:38:03Z</time>
      </trkpt>
      <trkpt lat="41.9519920" lon="-4.5030530">
        <ele>718.8</ele>
        <time>2018-08-23T18:38:04Z</time>
      </trkpt>
      <trkpt lat="41.9520590" lon="-4.5030590">
        <ele>718.7</ele>
        <time>2018-08-23T18:38:05Z</time>
      </trkpt>
      <trkpt lat="41.9521210" lon="-4.5030620">
        <ele>718.7</ele>
        <time>2018-08-23T18:38:06Z</time>
      </trkpt>
      <trkpt lat="41.9521800" lon="-4.5030570">
        <ele>718.6</ele>
        <time>2018-08-23T18:38:07Z</time>
      </trkpt>
      <trkpt lat="41.9522380" lon="-4.5030520">
        <ele>718.5</ele>
        <time>2018-08-23T18:38:08Z</time>
      </trkpt>
      <trkpt lat="41.9522970" lon="-4.5030480">
        <ele>718.5</ele>
        <time>2018-08-23T18:38:09Z</time>
      </trkpt>
      <trkpt lat="41.9523550" lon="-4.5030350">
        <ele>718.4</ele>
        <time>2018-08-23T18:38:10Z</time>
      </trkpt>
      <trkpt lat="41.9950720" lon="-4.5154100">
        <ele>736.3</ele>
        <time>2018-08-23T18:51:40Z</time>
      </trkpt>
      <trkpt lat="41.9950170" lon="-4.5154250">
        <ele>739.0</ele>
        <time>2018-08-23T18:51:42Z</time>
      </trkpt>
      <trkpt lat="41.9949950" lon="-4.5154760">
        <ele>739.0</ele>
        <time>2018-08-23T18:51:44Z</time>
      </trkpt>
      <trkpt lat="41.9949840" lon="-4.5155200">
        <ele>739.0</ele>
        <time>2018-08-23T18:51:45Z</time>
      </trkpt>
    </trkseg>
  </trk>
</gpx>
